﻿<?xml version="1.0" encoding="utf-8"?><gpx creator="Garmin Desktop App" version="1.1" xsi:schemaLocation="http://www.topografix.com/GPX/1/1 http://www.topografix.com/GPX/1/1/gpx.xsd http://www.garmin.com/xmlschemas/WaypointExtension/v1 http://www8.garmin.com/xmlschemas/WaypointExtensionv1.xsd http://www.garmin.com/xmlschemas/TrackPointExtension/v1 http://www.garmin.com/xmlschemas/TrackPointExtensionv1.xsd http://www.garmin.com/xmlschemas/GpxExtensions/v3 http://www8.garmin.com/xmlschemas/GpxExtensionsv3.xsd http://www.garmin.com/xmlschemas/ActivityExtension/v1 http://www8.garmin.com/xmlschemas/ActivityExtensionv1.xsd http://www.garmin.com/xmlschemas/AdventuresExtensions/v1 http://www8.garmin.com/xmlschemas/AdventuresExtensionv1.xsd http://www.garmin.com/xmlschemas/PressureExtension/v1 http://www.garmin.com/xmlschemas/PressureExtensionv1.xsd http://www.garmin.com/xmlschemas/TripExtensions/v1 http://www.garmin.com/xmlschemas/TripExtensionsv1.xsd http://www.garmin.com/xmlschemas/TripMetaDataExtensions/v1 http://www.garmin.com/xmlschemas/TripMetaDataExtensionsv1.xsd http://www.garmin.com/xmlschemas/ViaPointTransportationModeExtensions/v1 http://www.garmin.com/xmlschemas/ViaPointTransportationModeExtensionsv1.xsd http://www.garmin.com/xmlschemas/CreationTimeExtension/v1 http://www.garmin.com/xmlschemas/CreationTimeExtensionsv1.xsd http://www.garmin.com/xmlschemas/AccelerationExtension/v1 http://www.garmin.com/xmlschemas/AccelerationExtensionv1.xsd http://www.garmin.com/xmlschemas/PowerExtension/v1 http://www.garmin.com/xmlschemas/PowerExtensionv1.xsd http://www.garmin.com/xmlschemas/VideoExtension/v1 http://www.garmin.com/xmlschemas/VideoExtensionv1.xsd" xmlns="http://www.topografix.com/GPX/1/1" xmlns:xsi="http://www.w3.org/2001/XMLSchema-instance" xmlns:wptx1="http://www.garmin.com/xmlschemas/WaypointExtension/v1" xmlns:gpxtrx="http://www.garmin.com/xmlschemas/GpxExtensions/v3" xmlns:gpxtpx="http://www.garmin.com/xmlschemas/TrackPointExtension/v1" xmlns:gpxx="http://www.garmin.com/xmlschemas/GpxExtensions/v3" xmlns:trp="http://www.garmin.com/xmlschemas/TripExtensions/v1" xmlns:adv="http://www.garmin.com/xmlschemas/AdventuresExtensions/v1" xmlns:prs="http://www.garmin.com/xmlschemas/PressureExtension/v1" xmlns:tmd="http://www.garmin.com/xmlschemas/TripMetaDataExtensions/v1" xmlns:vptm="http://www.garmin.com/xmlschemas/ViaPointTransportationModeExtensions/v1" xmlns:ctx="http://www.garmin.com/xmlschemas/CreationTimeExtension/v1" xmlns:gpxacc="http://www.garmin.com/xmlschemas/AccelerationExtension/v1" xmlns:gpxpx="http://www.garmin.com/xmlschemas/PowerExtension/v1" xmlns:vidx1="http://www.garmin.com/xmlschemas/VideoExtension/v1">

  <metadata>
    <link href="http://www.garmin.com">
      <text>Garmin International</text>
    </link>
    <time>2021-01-23T13:05:10Z</time>
    <bounds maxlat="46.44166094250977" maxlon="8.405184326693416" minlat="46.425024205818772" minlon="8.362840041518211" />
  </metadata>

  <trk>
    <name>rifugio-citta-di-busto</name>
    <extensions>
      <gpxx:TrackExtension>
        <gpxx:DisplayColor>Yellow</gpxx:DisplayColor>
      </gpxx:TrackExtension>
    </extensions>
    <trkseg>
      <trkpt lat="46.425024205818772" lon="8.405184326693416">
        <ele>1760.29</ele>
        <time>2020-09-06T06:58:05Z</time>
      </trkpt>
      <trkpt lat="46.425068881362677" lon="8.405147194862366">
        <ele>1759.9200000000001</ele>
        <time>2020-09-06T06:58:14Z</time>
      </trkpt>
      <trkpt lat="46.425093188881874" lon="8.405152391642332">
        <ele>1760.73</ele>
        <time>2020-09-06T06:58:16Z</time>
      </trkpt>
      <trkpt lat="46.425158903002739" lon="8.405119199305773">
        <ele>1760.5899999999999</ele>
        <time>2020-09-06T06:58:22Z</time>
      </trkpt>
      <trkpt lat="46.425291420891881" lon="8.404981652274728">
        <ele>1762.0899999999999</ele>
        <time>2020-09-06T06:58:37Z</time>
      </trkpt>
      <trkpt lat="46.425366941839457" lon="8.404802698642016">
        <ele>1764.23</ele>
        <time>2020-09-06T06:58:52Z</time>
      </trkpt>
      <trkpt lat="46.425383202731609" lon="8.404735727235675">
        <ele>1764.5999999999999</ele>
        <time>2020-09-06T06:59:04Z</time>
      </trkpt>
      <trkpt lat="46.42539544031024" lon="8.404729692265391">
        <ele>1764.8099999999999</ele>
        <time>2020-09-06T06:59:06Z</time>
      </trkpt>
      <trkpt lat="46.425431482493877" lon="8.404709910973907">
        <ele>1765.1500000000001</ele>
        <time>2020-09-06T06:59:10Z</time>
      </trkpt>
      <trkpt lat="46.42545310780406" lon="8.40468124486506">
        <ele>1765.3399999999999</ele>
        <time>2020-09-06T06:59:13Z</time>
      </trkpt>
      <trkpt lat="46.425545141100883" lon="8.40461335144937">
        <ele>1767.6199999999999</ele>
        <time>2020-09-06T06:59:27Z</time>
      </trkpt>
      <trkpt lat="46.42562510445714" lon="8.404501369222999">
        <ele>1769.98</ele>
        <time>2020-09-06T06:59:41Z</time>
      </trkpt>
      <trkpt lat="46.425679167732596" lon="8.404344962909818">
        <ele>1773.05</ele>
        <time>2020-09-06T06:59:56Z</time>
      </trkpt>
      <trkpt lat="46.425743792206049" lon="8.404296515509486">
        <ele>1775.96</ele>
        <time>2020-09-06T07:00:10Z</time>
      </trkpt>
      <trkpt lat="46.425741193816066" lon="8.404252761974931">
        <ele>1777.45</ele>
        <time>2020-09-06T07:00:18Z</time>
      </trkpt>
      <trkpt lat="46.425838759168983" lon="8.404110185801983">
        <ele>1778.71</ele>
        <time>2020-09-06T07:00:31Z</time>
      </trkpt>
      <trkpt lat="46.425801208242774" lon="8.403898039832711">
        <ele>1779.9300000000001</ele>
        <time>2020-09-06T07:00:46Z</time>
      </trkpt>
      <trkpt lat="46.425779163837433" lon="8.403761917725205">
        <ele>1782.0999999999999</ele>
        <time>2020-09-06T07:00:59Z</time>
      </trkpt>
      <trkpt lat="46.425777906551957" lon="8.403748841956258">
        <ele>1782.3399999999999</ele>
        <time>2020-09-06T07:01:00Z</time>
      </trkpt>
      <trkpt lat="46.425768602639437" lon="8.403518507257104">
        <ele>1784.0899999999999</ele>
        <time>2020-09-06T07:01:15Z</time>
      </trkpt>
      <trkpt lat="46.425770111382008" lon="8.403322789818049">
        <ele>1786.05</ele>
        <time>2020-09-06T07:01:30Z</time>
      </trkpt>
      <trkpt lat="46.425773967057467" lon="8.403138052672148">
        <ele>1788.25</ele>
        <time>2020-09-06T07:01:44Z</time>
      </trkpt>
      <trkpt lat="46.425771284848452" lon="8.402955662459135">
        <ele>1790.27</ele>
        <time>2020-09-06T07:01:58Z</time>
      </trkpt>
      <trkpt lat="46.42577069811523" lon="8.402761286124587">
        <ele>1792.3699999999999</ele>
        <time>2020-09-06T07:02:12Z</time>
      </trkpt>
      <trkpt lat="46.425749491900206" lon="8.402555091306567">
        <ele>1794.98</ele>
        <time>2020-09-06T07:02:27Z</time>
      </trkpt>
      <trkpt lat="46.425775308161974" lon="8.40241989120841">
        <ele>1796.6700000000001</ele>
        <time>2020-09-06T07:02:38Z</time>
      </trkpt>
      <trkpt lat="46.425803219899535" lon="8.40231386013329">
        <ele>1797.71</ele>
        <time>2020-09-06T07:02:51Z</time>
      </trkpt>
      <trkpt lat="46.425847727805376" lon="8.402173211798072">
        <ele>1799.3900000000001</ele>
        <time>2020-09-06T07:03:04Z</time>
      </trkpt>
      <trkpt lat="46.425880920141935" lon="8.402039520442486">
        <ele>1801.6900000000001</ele>
        <time>2020-09-06T07:03:18Z</time>
      </trkpt>
      <trkpt lat="46.425970187410712" lon="8.401939440518618">
        <ele>1803.4100000000001</ele>
        <time>2020-09-06T07:03:32Z</time>
      </trkpt>
      <trkpt lat="46.426054844632745" lon="8.401790661737323">
        <ele>1806.5999999999999</ele>
        <time>2020-09-06T07:03:51Z</time>
      </trkpt>
      <trkpt lat="46.42611326649785" lon="8.401678679510951">
        <ele>1809.4300000000001</ele>
        <time>2020-09-06T07:04:07Z</time>
      </trkpt>
      <trkpt lat="46.426138747483492" lon="8.40161170810461">
        <ele>1811.6800000000001</ele>
        <time>2020-09-06T07:04:20Z</time>
      </trkpt>
      <trkpt lat="46.426186608150601" lon="8.401543060317636">
        <ele>1814.55</ele>
        <time>2020-09-06T07:04:34Z</time>
      </trkpt>
      <trkpt lat="46.426218627020717" lon="8.401495702564716">
        <ele>1815.3199999999999</ele>
        <time>2020-09-06T07:04:39Z</time>
      </trkpt>
      <trkpt lat="46.426319796591997" lon="8.401334267109633">
        <ele>1817.54</ele>
        <time>2020-09-06T07:04:56Z</time>
      </trkpt>
      <trkpt lat="46.426397748291492" lon="8.4012755099684">
        <ele>1820</ele>
        <time>2020-09-06T07:05:10Z</time>
      </trkpt>
      <trkpt lat="46.426456170156598" lon="8.401257656514645">
        <ele>1821.71</ele>
        <time>2020-09-06T07:05:18Z</time>
      </trkpt>
      <trkpt lat="46.426561363041401" lon="8.401210131123662">
        <ele>1823.9200000000001</ele>
        <time>2020-09-06T07:05:33Z</time>
      </trkpt>
      <trkpt lat="46.426598997786641" lon="8.401116337627173">
        <ele>1826.29</ele>
        <time>2020-09-06T07:05:48Z</time>
      </trkpt>
      <trkpt lat="46.426656413823366" lon="8.401081720367074">
        <ele>1829.3199999999999</ele>
        <time>2020-09-06T07:06:03Z</time>
      </trkpt>
      <trkpt lat="46.426691450178623" lon="8.401092197746038">
        <ele>1830.75</ele>
        <time>2020-09-06T07:06:11Z</time>
      </trkpt>
      <trkpt lat="46.426719697192311" lon="8.401044588536024">
        <ele>1831.48</ele>
        <time>2020-09-06T07:06:15Z</time>
      </trkpt>
      <trkpt lat="46.426800414919853" lon="8.400845183059573">
        <ele>1832.5599999999999</ele>
        <time>2020-09-06T07:06:30Z</time>
      </trkpt>
      <trkpt lat="46.426725815981627" lon="8.400731272995472">
        <ele>1832.74</ele>
        <time>2020-09-06T07:06:41Z</time>
      </trkpt>
      <trkpt lat="46.426719110459089" lon="8.400730770081282">
        <ele>1832.4400000000001</ele>
        <time>2020-09-06T07:06:51Z</time>
      </trkpt>
      <trkpt lat="46.426720703020692" lon="8.400686094537377">
        <ele>1832.3900000000001</ele>
        <time>2020-09-06T07:06:54Z</time>
      </trkpt>
      <trkpt lat="46.426685499027371" lon="8.40050932019949">
        <ele>1832.7</ele>
        <time>2020-09-06T07:07:06Z</time>
      </trkpt>
      <trkpt lat="46.426657838746905" lon="8.400460705161095">
        <ele>1832.73</ele>
        <time>2020-09-06T07:07:10Z</time>
      </trkpt>
      <trkpt lat="46.426535798236728" lon="8.400247218087316">
        <ele>1832.71</ele>
        <time>2020-09-06T07:07:26Z</time>
      </trkpt>
      <trkpt lat="46.426416356116533" lon="8.400045046582818">
        <ele>1832.6400000000001</ele>
        <time>2020-09-06T07:07:42Z</time>
      </trkpt>
      <trkpt lat="46.426347037777305" lon="8.399972626939416">
        <ele>1832.54</ele>
        <time>2020-09-06T07:07:52Z</time>
      </trkpt>
      <trkpt lat="46.426266403868794" lon="8.399892998859286">
        <ele>1832.1700000000001</ele>
        <time>2020-09-06T07:08:01Z</time>
      </trkpt>
      <trkpt lat="46.426238575950265" lon="8.399844970554113">
        <ele>1832.3299999999999</ele>
        <time>2020-09-06T07:08:05Z</time>
      </trkpt>
      <trkpt lat="46.426282161846757" lon="8.39966501109302">
        <ele>1832.9200000000001</ele>
        <time>2020-09-06T07:08:21Z</time>
      </trkpt>
      <trkpt lat="46.426299931481481" lon="8.399648582562804">
        <ele>1832.55</ele>
        <time>2020-09-06T07:08:31Z</time>
      </trkpt>
      <trkpt lat="46.426402861252427" lon="8.399513717740774">
        <ele>1833.21</ele>
        <time>2020-09-06T07:08:44Z</time>
      </trkpt>
      <trkpt lat="46.426476705819368" lon="8.399298302829266">
        <ele>1833.54</ele>
        <time>2020-09-06T07:09:01Z</time>
      </trkpt>
      <trkpt lat="46.426531188189983" lon="8.399136867374182">
        <ele>1833.74</ele>
        <time>2020-09-06T07:09:14Z</time>
      </trkpt>
      <trkpt lat="46.426574438810349" lon="8.398868227377534">
        <ele>1834.01</ele>
        <time>2020-09-06T07:09:32Z</time>
      </trkpt>
      <trkpt lat="46.426563039422035" lon="8.398718861863017">
        <ele>1834.3299999999999</ele>
        <time>2020-09-06T07:09:41Z</time>
      </trkpt>
      <trkpt lat="46.426502522081137" lon="8.39851962402463">
        <ele>1834.1600000000001</ele>
        <time>2020-09-06T07:09:55Z</time>
      </trkpt>
      <trkpt lat="46.426491793245077" lon="8.398312842473388">
        <ele>1833.8399999999999</ele>
        <time>2020-09-06T07:10:09Z</time>
      </trkpt>
      <trkpt lat="46.426511323079467" lon="8.39808477088809">
        <ele>1834.05</ele>
        <time>2020-09-06T07:10:24Z</time>
      </trkpt>
      <trkpt lat="46.42654325813055" lon="8.397863153368235">
        <ele>1834.2</ele>
        <time>2020-09-06T07:10:38Z</time>
      </trkpt>
      <trkpt lat="46.426556501537561" lon="8.397644134238362">
        <ele>1834.0999999999999</ele>
        <time>2020-09-06T07:10:49Z</time>
      </trkpt>
      <trkpt lat="46.426560860127211" lon="8.397546652704477">
        <ele>1834.3</ele>
        <time>2020-09-06T07:10:56Z</time>
      </trkpt>
      <trkpt lat="46.426555495709181" lon="8.397531816735864">
        <ele>1834.23</ele>
        <time>2020-09-06T07:10:57Z</time>
      </trkpt>
      <trkpt lat="46.426552562043071" lon="8.397516142576933">
        <ele>1834.1600000000001</ele>
        <time>2020-09-06T07:10:58Z</time>
      </trkpt>
      <trkpt lat="46.426548538729548" lon="8.397501893341541">
        <ele>1834.3599999999999</ele>
        <time>2020-09-06T07:10:59Z</time>
      </trkpt>
      <trkpt lat="46.426543174311519" lon="8.397487392649055">
        <ele>1834.3599999999999</ele>
        <time>2020-09-06T07:11:00Z</time>
      </trkpt>
      <trkpt lat="46.426538815721869" lon="8.397470964118838">
        <ele>1834.24</ele>
        <time>2020-09-06T07:11:01Z</time>
      </trkpt>
      <trkpt lat="46.426533032208681" lon="8.397376416251063">
        <ele>1834.8399999999999</ele>
        <time>2020-09-06T07:11:11Z</time>
      </trkpt>
      <trkpt lat="46.426541665568948" lon="8.397345738485456">
        <ele>1834.5999999999999</ele>
        <time>2020-09-06T07:11:14Z</time>
      </trkpt>
      <trkpt lat="46.426549712195992" lon="8.397317407652736">
        <ele>1834.53</ele>
        <time>2020-09-06T07:11:16Z</time>
      </trkpt>
      <trkpt lat="46.42656572163105" lon="8.397275330498815">
        <ele>1834.1199999999999</ele>
        <time>2020-09-06T07:11:24Z</time>
      </trkpt>
      <trkpt lat="46.426569242030382" lon="8.397260745987296">
        <ele>1834.29</ele>
        <time>2020-09-06T07:11:25Z</time>
      </trkpt>
      <trkpt lat="46.426572175696492" lon="8.397245239466429">
        <ele>1834.3699999999999</ele>
        <time>2020-09-06T07:11:26Z</time>
      </trkpt>
      <trkpt lat="46.426575277000666" lon="8.397229481488466">
        <ele>1834.3499999999999</ele>
        <time>2020-09-06T07:11:27Z</time>
      </trkpt>
      <trkpt lat="46.426579132676125" lon="8.397214645519853">
        <ele>1834.4400000000001</ele>
        <time>2020-09-06T07:11:28Z</time>
      </trkpt>
      <trkpt lat="46.426613917574286" lon="8.396981880068779">
        <ele>1834.8900000000001</ele>
        <time>2020-09-06T07:11:43Z</time>
      </trkpt>
      <trkpt lat="46.426670830696821" lon="8.396687004715204">
        <ele>1835.1300000000001</ele>
        <time>2020-09-06T07:12:02Z</time>
      </trkpt>
      <trkpt lat="46.426756074652076" lon="8.396465387195349">
        <ele>1834.74</ele>
        <time>2020-09-06T07:12:18Z</time>
      </trkpt>
      <trkpt lat="46.426882222294807" lon="8.396229604259133">
        <ele>1834.5999999999999</ele>
        <time>2020-09-06T07:12:37Z</time>
      </trkpt>
      <trkpt lat="46.426995126530528" lon="8.396042101085186">
        <ele>1834.75</ele>
        <time>2020-09-06T07:12:52Z</time>
      </trkpt>
      <trkpt lat="46.427112054079771" lon="8.395833307877183">
        <ele>1834.5599999999999</ele>
        <time>2020-09-06T07:13:09Z</time>
      </trkpt>
      <trkpt lat="46.427211379632354" lon="8.395611438900232">
        <ele>1834.8099999999999</ele>
        <time>2020-09-06T07:13:25Z</time>
      </trkpt>
      <trkpt lat="46.427305256947875" lon="8.395381355658174">
        <ele>1834.6199999999999</ele>
        <time>2020-09-06T07:13:42Z</time>
      </trkpt>
      <trkpt lat="46.427402403205633" lon="8.395184883847833">
        <ele>1834.8299999999999</ele>
        <time>2020-09-06T07:13:58Z</time>
      </trkpt>
      <trkpt lat="46.427447246387601" lon="8.395115984603763">
        <ele>1834.98</ele>
        <time>2020-09-06T07:14:06Z</time>
      </trkpt>
      <trkpt lat="46.427454454824328" lon="8.395103495568037">
        <ele>1834.99</ele>
        <time>2020-09-06T07:14:07Z</time>
      </trkpt>
      <trkpt lat="46.427461579442024" lon="8.395091341808438">
        <ele>1835</ele>
        <time>2020-09-06T07:14:08Z</time>
      </trkpt>
      <trkpt lat="46.427469290792942" lon="8.395079858601093">
        <ele>1834.8800000000001</ele>
        <time>2020-09-06T07:14:09Z</time>
      </trkpt>
      <trkpt lat="46.427477924153209" lon="8.395068123936653">
        <ele>1834.8900000000001</ele>
        <time>2020-09-06T07:14:10Z</time>
      </trkpt>
      <trkpt lat="46.427485216408968" lon="8.395056305453181">
        <ele>1834.8</ele>
        <time>2020-09-06T07:14:11Z</time>
      </trkpt>
      <trkpt lat="46.427599629387259" lon="8.394825216382742">
        <ele>1834.96</ele>
        <time>2020-09-06T07:14:29Z</time>
      </trkpt>
      <trkpt lat="46.427696356549859" lon="8.394615082070231">
        <ele>1835.22</ele>
        <time>2020-09-06T07:14:45Z</time>
      </trkpt>
      <trkpt lat="46.427788473665714" lon="8.394358595833182">
        <ele>1836.1199999999999</ele>
        <time>2020-09-06T07:15:04Z</time>
      </trkpt>
      <trkpt lat="46.427860977128148" lon="8.394130691885948">
        <ele>1836.48</ele>
        <time>2020-09-06T07:15:21Z</time>
      </trkpt>
      <trkpt lat="46.427940437570214" lon="8.393918545916677">
        <ele>1837.03</ele>
        <time>2020-09-06T07:15:38Z</time>
      </trkpt>
      <trkpt lat="46.428035236895084" lon="8.393745878711343">
        <ele>1837.47</ele>
        <time>2020-09-06T07:15:53Z</time>
      </trkpt>
      <trkpt lat="46.428143363445997" lon="8.393505401909351">
        <ele>1837.5799999999999</ele>
        <time>2020-09-06T07:16:12Z</time>
      </trkpt>
      <trkpt lat="46.428235312923789" lon="8.39331035502255">
        <ele>1837.6099999999999</ele>
        <time>2020-09-06T07:16:28Z</time>
      </trkpt>
      <trkpt lat="46.428339248523116" lon="8.393121510744095">
        <ele>1837.78</ele>
        <time>2020-09-06T07:16:44Z</time>
      </trkpt>
      <trkpt lat="46.428429689258337" lon="8.39297030121088">
        <ele>1838.6700000000001</ele>
        <time>2020-09-06T07:16:57Z</time>
      </trkpt>
      <trkpt lat="46.428583329543471" lon="8.392776092514396">
        <ele>1839.74</ele>
        <time>2020-09-06T07:17:17Z</time>
      </trkpt>
      <trkpt lat="46.428613336756825" lon="8.39271130040288">
        <ele>1840.3499999999999</ele>
        <time>2020-09-06T07:17:27Z</time>
      </trkpt>
      <trkpt lat="46.42862624488771" lon="8.392696296796203">
        <ele>1840.1099999999999</ele>
        <time>2020-09-06T07:17:29Z</time>
      </trkpt>
      <trkpt lat="46.428635464981198" lon="8.392689004540443">
        <ele>1839.8699999999999</ele>
        <time>2020-09-06T07:17:30Z</time>
      </trkpt>
      <trkpt lat="46.42864485271275" lon="8.392680874094367">
        <ele>1839.9400000000001</ele>
        <time>2020-09-06T07:17:31Z</time>
      </trkpt>
      <trkpt lat="46.428655749186873" lon="8.392672911286354">
        <ele>1839.99</ele>
        <time>2020-09-06T07:17:32Z</time>
      </trkpt>
      <trkpt lat="46.428666058927774" lon="8.392665786668658">
        <ele>1839.77</ele>
        <time>2020-09-06T07:17:33Z</time>
      </trkpt>
      <trkpt lat="46.428675530478358" lon="8.39266050606966">
        <ele>1839.5599999999999</ele>
        <time>2020-09-06T07:17:34Z</time>
      </trkpt>
      <trkpt lat="46.428686426952481" lon="8.392654974013567">
        <ele>1839.51</ele>
        <time>2020-09-06T07:17:35Z</time>
      </trkpt>
      <trkpt lat="46.428818022832274" lon="8.392580458894372">
        <ele>1840.3399999999999</ele>
        <time>2020-09-06T07:17:49Z</time>
      </trkpt>
      <trkpt lat="46.428832104429603" lon="8.392585655674338">
        <ele>1840.5</ele>
        <time>2020-09-06T07:17:52Z</time>
      </trkpt>
      <trkpt lat="46.428918857127428" lon="8.392545590177178">
        <ele>1840.8800000000001</ele>
        <time>2020-09-06T07:18:01Z</time>
      </trkpt>
      <trkpt lat="46.429069647565484" lon="8.392460262402892">
        <ele>1841.0999999999999</ele>
        <time>2020-09-06T07:18:17Z</time>
      </trkpt>
      <trkpt lat="46.429205182939768" lon="8.392367139458656">
        <ele>1841.6199999999999</ele>
        <time>2020-09-06T07:18:32Z</time>
      </trkpt>
      <trkpt lat="46.429318003356457" lon="8.392225485295057">
        <ele>1842.53</ele>
        <time>2020-09-06T07:18:47Z</time>
      </trkpt>
      <trkpt lat="46.429413892328739" lon="8.392071593552828">
        <ele>1843.1199999999999</ele>
        <time>2020-09-06T07:19:01Z</time>
      </trkpt>
      <trkpt lat="46.429504165425897" lon="8.391922730952501">
        <ele>1843.8</ele>
        <time>2020-09-06T07:19:15Z</time>
      </trkpt>
      <trkpt lat="46.429615477100015" lon="8.391750399023294">
        <ele>1844.72</ele>
        <time>2020-09-06T07:19:30Z</time>
      </trkpt>
      <trkpt lat="46.429747743532062" lon="8.391603967174888">
        <ele>1845.1400000000001</ele>
        <time>2020-09-06T07:19:46Z</time>
      </trkpt>
      <trkpt lat="46.429894594475627" lon="8.391461474820972">
        <ele>1845.6700000000001</ele>
        <time>2020-09-06T07:20:03Z</time>
      </trkpt>
      <trkpt lat="46.430011102929711" lon="8.391322670504451">
        <ele>1845.8599999999999</ele>
        <time>2020-09-06T07:20:18Z</time>
      </trkpt>
      <trkpt lat="46.430121073499322" lon="8.391170203685761">
        <ele>1846.6500000000001</ele>
        <time>2020-09-06T07:20:34Z</time>
      </trkpt>
      <trkpt lat="46.430196426808834" lon="8.391068195924163">
        <ele>1847.22</ele>
        <time>2020-09-06T07:20:46Z</time>
      </trkpt>
      <trkpt lat="46.430201707407832" lon="8.391055539250374">
        <ele>1847.23</ele>
        <time>2020-09-06T07:20:47Z</time>
      </trkpt>
      <trkpt lat="46.430231379345059" lon="8.391010360792279">
        <ele>1847.6600000000001</ele>
        <time>2020-09-06T07:20:52Z</time>
      </trkpt>
      <trkpt lat="46.430266415700316" lon="8.390974150970578">
        <ele>1847.8</ele>
        <time>2020-09-06T07:21:05Z</time>
      </trkpt>
      <trkpt lat="46.430279240012169" lon="8.390958392992616">
        <ele>1848.1900000000001</ele>
        <time>2020-09-06T07:21:10Z</time>
      </trkpt>
      <trkpt lat="46.430299021303654" lon="8.39093660004437">
        <ele>1848.02</ele>
        <time>2020-09-06T07:21:12Z</time>
      </trkpt>
      <trkpt lat="46.430457271635532" lon="8.390733674168587">
        <ele>1849.21</ele>
        <time>2020-09-06T07:21:29Z</time>
      </trkpt>
      <trkpt lat="46.430587861686945" lon="8.390578776597977">
        <ele>1849.3599999999999</ele>
        <time>2020-09-06T07:21:44Z</time>
      </trkpt>
      <trkpt lat="46.430705459788442" lon="8.390419604256749">
        <ele>1850.47</ele>
        <time>2020-09-06T07:21:59Z</time>
      </trkpt>
      <trkpt lat="46.43075910396874" lon="8.390367552638054">
        <ele>1851.27</ele>
        <time>2020-09-06T07:22:07Z</time>
      </trkpt>
      <trkpt lat="46.430765138939023" lon="8.390354728326201">
        <ele>1851.1900000000001</ele>
        <time>2020-09-06T07:22:08Z</time>
      </trkpt>
      <trkpt lat="46.430795732885599" lon="8.390315333381295">
        <ele>1851.25</ele>
        <time>2020-09-06T07:22:12Z</time>
      </trkpt>
      <trkpt lat="46.430864464491606" lon="8.390235789120197">
        <ele>1851.4300000000001</ele>
        <time>2020-09-06T07:22:23Z</time>
      </trkpt>
      <trkpt lat="46.430977871641517" lon="8.390095056965947">
        <ele>1852.01</ele>
        <time>2020-09-06T07:22:38Z</time>
      </trkpt>
      <trkpt lat="46.431083399802446" lon="8.389915768057108">
        <ele>1852.74</ele>
        <time>2020-09-06T07:22:54Z</time>
      </trkpt>
      <trkpt lat="46.431158920750022" lon="8.389771766960621">
        <ele>1853.3800000000001</ele>
        <time>2020-09-06T07:23:07Z</time>
      </trkpt>
      <trkpt lat="46.431254055351019" lon="8.38959482498467">
        <ele>1853.72</ele>
        <time>2020-09-06T07:23:23Z</time>
      </trkpt>
      <trkpt lat="46.431339299306273" lon="8.389417380094528">
        <ele>1854.4200000000001</ele>
        <time>2020-09-06T07:23:38Z</time>
      </trkpt>
      <trkpt lat="46.43142756074667" lon="8.389232140034437">
        <ele>1855.0999999999999</ele>
        <time>2020-09-06T07:23:54Z</time>
      </trkpt>
      <trkpt lat="46.431530071422458" lon="8.389031477272511">
        <ele>1856.22</ele>
        <time>2020-09-06T07:24:12Z</time>
      </trkpt>
      <trkpt lat="46.431628139689565" lon="8.388826036825776">
        <ele>1856.8199999999999</ele>
        <time>2020-09-06T07:24:29Z</time>
      </trkpt>
      <trkpt lat="46.431730985641479" lon="8.388645993545651">
        <ele>1857.0599999999999</ele>
        <time>2020-09-06T07:24:44Z</time>
      </trkpt>
      <trkpt lat="46.431834669783711" lon="8.388409037142992">
        <ele>1857.26</ele>
        <time>2020-09-06T07:25:02Z</time>
      </trkpt>
      <trkpt lat="46.431925278156996" lon="8.388200160115957">
        <ele>1858.05</ele>
        <time>2020-09-06T07:25:18Z</time>
      </trkpt>
      <trkpt lat="46.432052180171013" lon="8.388016680255532">
        <ele>1858.5</ele>
        <time>2020-09-06T07:25:35Z</time>
      </trkpt>
      <trkpt lat="46.432170951738954" lon="8.387864716351032">
        <ele>1858.7</ele>
        <time>2020-09-06T07:25:50Z</time>
      </trkpt>
      <trkpt lat="46.432285867631435" lon="8.387715350836515">
        <ele>1859.51</ele>
        <time>2020-09-06T07:26:05Z</time>
      </trkpt>
      <trkpt lat="46.432315288111567" lon="8.387644104659557">
        <ele>1860.6900000000001</ele>
        <time>2020-09-06T07:26:17Z</time>
      </trkpt>
      <trkpt lat="46.432337835431099" lon="8.387632621452212">
        <ele>1859.77</ele>
        <time>2020-09-06T07:26:24Z</time>
      </trkpt>
      <trkpt lat="46.43235401250422" lon="8.38761342689395">
        <ele>1860.04</ele>
        <time>2020-09-06T07:26:26Z</time>
      </trkpt>
      <trkpt lat="46.432453924790025" lon="8.387475376948714">
        <ele>1860.8199999999999</ele>
        <time>2020-09-06T07:26:39Z</time>
      </trkpt>
      <trkpt lat="46.43256263807416" lon="8.387275468558073">
        <ele>1861.54</ele>
        <time>2020-09-06T07:26:55Z</time>
      </trkpt>
      <trkpt lat="46.432662550359964" lon="8.387056030333042">
        <ele>1862.73</ele>
        <time>2020-09-06T07:27:12Z</time>
      </trkpt>
      <trkpt lat="46.432764222845435" lon="8.386869449168444">
        <ele>1863.3099999999999</ele>
        <time>2020-09-06T07:27:28Z</time>
      </trkpt>
      <trkpt lat="46.432873522862792" lon="8.386686723679304">
        <ele>1863.71</ele>
        <time>2020-09-06T07:27:44Z</time>
      </trkpt>
      <trkpt lat="46.432984750717878" lon="8.386507770046592">
        <ele>1864.5799999999999</ele>
        <time>2020-09-06T07:28:00Z</time>
      </trkpt>
      <trkpt lat="46.433092374354601" lon="8.386338287964463">
        <ele>1864.8599999999999</ele>
        <time>2020-09-06T07:28:15Z</time>
      </trkpt>
      <trkpt lat="46.433221790939569" lon="8.386156652122736">
        <ele>1865.79</ele>
        <time>2020-09-06T07:28:32Z</time>
      </trkpt>
      <trkpt lat="46.433327905833721" lon="8.385974261909723">
        <ele>1866.51</ele>
        <time>2020-09-06T07:28:47Z</time>
      </trkpt>
      <trkpt lat="46.433437373489141" lon="8.385791452601552">
        <ele>1866.75</ele>
        <time>2020-09-06T07:29:03Z</time>
      </trkpt>
      <trkpt lat="46.433522365987301" lon="8.385640326887369">
        <ele>1866.54</ele>
        <time>2020-09-06T07:29:16Z</time>
      </trkpt>
      <trkpt lat="46.433644574135542" lon="8.385557429865003">
        <ele>1866.4400000000001</ele>
        <time>2020-09-06T07:29:31Z</time>
      </trkpt>
      <trkpt lat="46.433685310184956" lon="8.385525662451983">
        <ele>1867.46</ele>
        <time>2020-09-06T07:29:39Z</time>
      </trkpt>
      <trkpt lat="46.433820007368922" lon="8.385456930845976">
        <ele>1868.1700000000001</ele>
        <time>2020-09-06T07:29:55Z</time>
      </trkpt>
      <trkpt lat="46.433891840279102" lon="8.385428600013256">
        <ele>1869.23</ele>
        <time>2020-09-06T07:30:09Z</time>
      </trkpt>
      <trkpt lat="46.433975491672754" lon="8.385441172868013">
        <ele>1870.26</ele>
        <time>2020-09-06T07:30:21Z</time>
      </trkpt>
      <trkpt lat="46.434089904651046" lon="8.385489033535123">
        <ele>1873.01</ele>
        <time>2020-09-06T07:30:38Z</time>
      </trkpt>
      <trkpt lat="46.434193588793278" lon="8.385547120124102">
        <ele>1874.6199999999999</ele>
        <time>2020-09-06T07:30:52Z</time>
      </trkpt>
      <trkpt lat="46.434304397553205" lon="8.385584754869342">
        <ele>1876.9000000000001</ele>
        <time>2020-09-06T07:31:09Z</time>
      </trkpt>
      <trkpt lat="46.434395341202617" lon="8.385631693527103">
        <ele>1879.4200000000001</ele>
        <time>2020-09-06T07:31:25Z</time>
      </trkpt>
      <trkpt lat="46.434501623734832" lon="8.385717691853643">
        <ele>1881.48</ele>
        <time>2020-09-06T07:31:42Z</time>
      </trkpt>
      <trkpt lat="46.434589382261038" lon="8.385727498680353">
        <ele>1883.2</ele>
        <time>2020-09-06T07:31:55Z</time>
      </trkpt>
      <trkpt lat="46.434622323140502" lon="8.385731689631939">
        <ele>1883.1199999999999</ele>
        <time>2020-09-06T07:31:58Z</time>
      </trkpt>
      <trkpt lat="46.434632549062371" lon="8.385736551135778">
        <ele>1883.26</ele>
        <time>2020-09-06T07:31:59Z</time>
      </trkpt>
      <trkpt lat="46.434755260124803" lon="8.385842079296708">
        <ele>1883.8099999999999</ele>
        <time>2020-09-06T07:32:15Z</time>
      </trkpt>
      <trkpt lat="46.43484846688807" lon="8.385848281905055">
        <ele>1885.55</ele>
        <time>2020-09-06T07:32:29Z</time>
      </trkpt>
      <trkpt lat="46.434937985613942" lon="8.385864710435271">
        <ele>1887.3499999999999</ele>
        <time>2020-09-06T07:32:41Z</time>
      </trkpt>
      <trkpt lat="46.434948965907097" lon="8.385865045711398">
        <ele>1887.3499999999999</ele>
        <time>2020-09-06T07:32:42Z</time>
      </trkpt>
      <trkpt lat="46.434968998655677" lon="8.385867225006223">
        <ele>1887.3399999999999</ele>
        <time>2020-09-06T07:32:44Z</time>
      </trkpt>
      <trkpt lat="46.435085004195571" lon="8.385933861136437">
        <ele>1888.0999999999999</ele>
        <time>2020-09-06T07:32:59Z</time>
      </trkpt>
      <trkpt lat="46.435159686952829" lon="8.385877199470997">
        <ele>1889.8599999999999</ele>
        <time>2020-09-06T07:33:12Z</time>
      </trkpt>
      <trkpt lat="46.435239566490054" lon="8.385852053761482">
        <ele>1892.04</ele>
        <time>2020-09-06T07:33:26Z</time>
      </trkpt>
      <trkpt lat="46.435298072174191" lon="8.385775610804558">
        <ele>1894</ele>
        <time>2020-09-06T07:33:40Z</time>
      </trkpt>
      <trkpt lat="46.435355069115758" lon="8.385689444839954">
        <ele>1895.02</ele>
        <time>2020-09-06T07:33:53Z</time>
      </trkpt>
      <trkpt lat="46.435354314744473" lon="8.385602608323097">
        <ele>1896.74</ele>
        <time>2020-09-06T07:34:05Z</time>
      </trkpt>
      <trkpt lat="46.435377784073353" lon="8.38556413538754">
        <ele>1896.5599999999999</ele>
        <time>2020-09-06T07:34:09Z</time>
      </trkpt>
      <trkpt lat="46.435448778793216" lon="8.38548987172544">
        <ele>1897.6400000000001</ele>
        <time>2020-09-06T07:34:21Z</time>
      </trkpt>
      <trkpt lat="46.435527233406901" lon="8.385447626933456">
        <ele>1900.72</ele>
        <time>2020-09-06T07:34:37Z</time>
      </trkpt>
      <trkpt lat="46.435579201206565" lon="8.385406052693725">
        <ele>1901.24</ele>
        <time>2020-09-06T07:34:50Z</time>
      </trkpt>
      <trkpt lat="46.435651956126094" lon="8.385333465412259">
        <ele>1903.77</ele>
        <time>2020-09-06T07:35:05Z</time>
      </trkpt>
      <trkpt lat="46.435720436275005" lon="8.385293902829289">
        <ele>1905.76</ele>
        <time>2020-09-06T07:35:19Z</time>
      </trkpt>
      <trkpt lat="46.435809452086687" lon="8.385235061869025">
        <ele>1908.29</ele>
        <time>2020-09-06T07:35:37Z</time>
      </trkpt>
      <trkpt lat="46.435885978862643" lon="8.385160379111767">
        <ele>1911.3299999999999</ele>
        <time>2020-09-06T07:35:54Z</time>
      </trkpt>
      <trkpt lat="46.435936102643609" lon="8.385113188996911">
        <ele>1911.95</ele>
        <time>2020-09-06T07:36:07Z</time>
      </trkpt>
      <trkpt lat="46.435970719903708" lon="8.385030627250671">
        <ele>1912.0599999999999</ele>
        <time>2020-09-06T07:36:19Z</time>
      </trkpt>
      <trkpt lat="46.43597231246531" lon="8.384924428537488">
        <ele>1912.3299999999999</ele>
        <time>2020-09-06T07:36:29Z</time>
      </trkpt>
      <trkpt lat="46.435926044359803" lon="8.384897019714117">
        <ele>1913</ele>
        <time>2020-09-06T07:36:40Z</time>
      </trkpt>
      <trkpt lat="46.435857396572828" lon="8.384906994178891">
        <ele>1914.3099999999999</ele>
        <time>2020-09-06T07:36:51Z</time>
      </trkpt>
      <trkpt lat="46.435812972486019" lon="8.384889727458358">
        <ele>1915.9100000000001</ele>
        <time>2020-09-06T07:37:02Z</time>
      </trkpt>
      <trkpt lat="46.435791598632932" lon="8.384887967258692">
        <ele>1915.5699999999999</ele>
        <time>2020-09-06T07:37:11Z</time>
      </trkpt>
      <trkpt lat="46.435661092400551" lon="8.38473055511713">
        <ele>1914.26</ele>
        <time>2020-09-06T07:37:27Z</time>
      </trkpt>
      <trkpt lat="46.435543326660991" lon="8.384592337533832">
        <ele>1914.5699999999999</ele>
        <time>2020-09-06T07:37:41Z</time>
      </trkpt>
      <trkpt lat="46.435474678874016" lon="8.384407851845026">
        <ele>1915.5599999999999</ele>
        <time>2020-09-06T07:37:55Z</time>
      </trkpt>
      <trkpt lat="46.435470571741462" lon="8.384232837706804">
        <ele>1916.01</ele>
        <time>2020-09-06T07:38:07Z</time>
      </trkpt>
      <trkpt lat="46.435499489307404" lon="8.384094955399633">
        <ele>1917.0699999999999</ele>
        <time>2020-09-06T07:38:18Z</time>
      </trkpt>
      <trkpt lat="46.435496807098389" lon="8.383954726159573">
        <ele>1919.79</ele>
        <time>2020-09-06T07:38:32Z</time>
      </trkpt>
      <trkpt lat="46.435496639460325" lon="8.383773928508163">
        <ele>1923.0799999999999</ele>
        <time>2020-09-06T07:38:49Z</time>
      </trkpt>
      <trkpt lat="46.435534860938787" lon="8.383614337071776">
        <ele>1925.55</ele>
        <time>2020-09-06T07:39:06Z</time>
      </trkpt>
      <trkpt lat="46.435565371066332" lon="8.383478717878461">
        <ele>1927.8199999999999</ele>
        <time>2020-09-06T07:39:20Z</time>
      </trkpt>
      <trkpt lat="46.43560585565865" lon="8.383336728438735">
        <ele>1929.8099999999999</ele>
        <time>2020-09-06T07:39:35Z</time>
      </trkpt>
      <trkpt lat="46.435678275302052" lon="8.383234385401011">
        <ele>1932.23</ele>
        <time>2020-09-06T07:39:51Z</time>
      </trkpt>
      <trkpt lat="46.435733260586858" lon="8.383139166980982">
        <ele>1935.23</ele>
        <time>2020-09-06T07:40:05Z</time>
      </trkpt>
      <trkpt lat="46.435780031606555" lon="8.383042691275477">
        <ele>1936.5599999999999</ele>
        <time>2020-09-06T07:40:19Z</time>
      </trkpt>
      <trkpt lat="46.435830406844616" lon="8.383140088990331">
        <ele>1938.72</ele>
        <time>2020-09-06T07:40:33Z</time>
      </trkpt>
      <trkpt lat="46.435891008004546" lon="8.383281491696835">
        <ele>1941.1600000000001</ele>
        <time>2020-09-06T07:40:49Z</time>
      </trkpt>
      <trkpt lat="46.435936521738768" lon="8.383411578834057">
        <ele>1944.02</ele>
        <time>2020-09-06T07:41:05Z</time>
      </trkpt>
      <trkpt lat="46.435966193675995" lon="8.383471593260765">
        <ele>1946.25</ele>
        <time>2020-09-06T07:41:16Z</time>
      </trkpt>
      <trkpt lat="46.435986394062638" lon="8.383590532466769">
        <ele>1949.02</ele>
        <time>2020-09-06T07:41:30Z</time>
      </trkpt>
      <trkpt lat="46.436001816764474" lon="8.383732605725527">
        <ele>1951</ele>
        <time>2020-09-06T07:41:44Z</time>
      </trkpt>
      <trkpt lat="46.436014473438263" lon="8.383843833580613">
        <ele>1952.8699999999999</ele>
        <time>2020-09-06T07:41:56Z</time>
      </trkpt>
      <trkpt lat="46.436066022142768" lon="8.383978363126516">
        <ele>1955.29</ele>
        <time>2020-09-06T07:42:12Z</time>
      </trkpt>
      <trkpt lat="46.436104159802198" lon="8.384045166894794">
        <ele>1957.52</ele>
        <time>2020-09-06T07:42:24Z</time>
      </trkpt>
      <trkpt lat="46.436137016862631" lon="8.383966879919171">
        <ele>1960.3399999999999</ele>
        <time>2020-09-06T07:42:38Z</time>
      </trkpt>
      <trkpt lat="46.436127964407206" lon="8.383842492476106">
        <ele>1962.0899999999999</ele>
        <time>2020-09-06T07:42:51Z</time>
      </trkpt>
      <trkpt lat="46.436157217249274" lon="8.383632525801659">
        <ele>1962.75</ele>
        <time>2020-09-06T07:43:08Z</time>
      </trkpt>
      <trkpt lat="46.436210107058287" lon="8.383517693728209">
        <ele>1964.47</ele>
        <time>2020-09-06T07:43:21Z</time>
      </trkpt>
      <trkpt lat="46.436275485903025" lon="8.383341003209353">
        <ele>1965.6500000000001</ele>
        <time>2020-09-06T07:43:37Z</time>
      </trkpt>
      <trkpt lat="46.436334075406194" lon="8.383185602724552">
        <ele>1968.3599999999999</ele>
        <time>2020-09-06T07:43:54Z</time>
      </trkpt>
      <trkpt lat="46.436375314369798" lon="8.383046798408032">
        <ele>1970.97</ele>
        <time>2020-09-06T07:44:10Z</time>
      </trkpt>
      <trkpt lat="46.436411356553435" lon="8.38289869017899">
        <ele>1973.29</ele>
        <time>2020-09-06T07:44:26Z</time>
      </trkpt>
      <trkpt lat="46.436439100652933" lon="8.382774386554956">
        <ele>1975.8</ele>
        <time>2020-09-06T07:44:39Z</time>
      </trkpt>
      <trkpt lat="46.436484027653933" lon="8.382662404328585">
        <ele>1977.72</ele>
        <time>2020-09-06T07:44:54Z</time>
      </trkpt>
      <trkpt lat="46.436507916077971" lon="8.38253173045814">
        <ele>1979.8599999999999</ele>
        <time>2020-09-06T07:45:08Z</time>
      </trkpt>
      <trkpt lat="46.436513112857938" lon="8.382384376600385">
        <ele>1982.53</ele>
        <time>2020-09-06T07:45:25Z</time>
      </trkpt>
      <trkpt lat="46.43657186999917" lon="8.382232999429107">
        <ele>1985.47</ele>
        <time>2020-09-06T07:45:44Z</time>
      </trkpt>
      <trkpt lat="46.436615539714694" lon="8.382141971960664">
        <ele>1987.8399999999999</ele>
        <time>2020-09-06T07:45:59Z</time>
      </trkpt>
      <trkpt lat="46.436631297692657" lon="8.382006352767348">
        <ele>1990.9200000000001</ele>
        <time>2020-09-06T07:46:15Z</time>
      </trkpt>
      <trkpt lat="46.43662660382688" lon="8.381904428824782">
        <ele>1994.02</ele>
        <time>2020-09-06T07:46:29Z</time>
      </trkpt>
      <trkpt lat="46.436631884425879" lon="8.381870482116938">
        <ele>1994.3099999999999</ele>
        <time>2020-09-06T07:46:44Z</time>
      </trkpt>
      <trkpt lat="46.436631297692657" lon="8.3818603400141">
        <ele>1995.0999999999999</ele>
        <time>2020-09-06T07:46:46Z</time>
      </trkpt>
      <trkpt lat="46.436671195551753" lon="8.381793787702918">
        <ele>1995.48</ele>
        <time>2020-09-06T07:46:59Z</time>
      </trkpt>
      <trkpt lat="46.436695754528046" lon="8.381803678348661">
        <ele>1997.1900000000001</ele>
        <time>2020-09-06T07:47:03Z</time>
      </trkpt>
      <trkpt lat="46.436734898015857" lon="8.381882384419441">
        <ele>1999.73</ele>
        <time>2020-09-06T07:47:16Z</time>
      </trkpt>
      <trkpt lat="46.436805138364434" lon="8.381887078285217">
        <ele>2002.1600000000001</ele>
        <time>2020-09-06T07:47:30Z</time>
      </trkpt>
      <trkpt lat="46.436836319044232" lon="8.381966203451157">
        <ele>2003.04</ele>
        <time>2020-09-06T07:47:41Z</time>
      </trkpt>
      <trkpt lat="46.436879988759756" lon="8.382025714963675">
        <ele>2005.1600000000001</ele>
        <time>2020-09-06T07:47:53Z</time>
      </trkpt>
      <trkpt lat="46.436922568827868" lon="8.382129985839129">
        <ele>2008.22</ele>
        <time>2020-09-06T07:48:08Z</time>
      </trkpt>
      <trkpt lat="46.436949139460921" lon="8.382284045219421">
        <ele>2010.28</ele>
        <time>2020-09-06T07:48:24Z</time>
      </trkpt>
      <trkpt lat="46.436963640153408" lon="8.382356213405728">
        <ele>2013.3099999999999</ele>
        <time>2020-09-06T07:48:33Z</time>
      </trkpt>
      <trkpt lat="46.436991551890969" lon="8.382409187033773">
        <ele>2014.1900000000001</ele>
        <time>2020-09-06T07:48:44Z</time>
      </trkpt>
      <trkpt lat="46.437023989856243" lon="8.382503315806389">
        <ele>2017.26</ele>
        <time>2020-09-06T07:48:57Z</time>
      </trkpt>
      <trkpt lat="46.437049554660916" lon="8.382626110687852">
        <ele>2018.5699999999999</ele>
        <time>2020-09-06T07:49:09Z</time>
      </trkpt>
      <trkpt lat="46.437095571309328" lon="8.382719988003373">
        <ele>2018.9100000000001</ele>
        <time>2020-09-06T07:49:21Z</time>
      </trkpt>
      <trkpt lat="46.437118286266923" lon="8.382595265284181">
        <ele>2021.5899999999999</ele>
        <time>2020-09-06T07:49:35Z</time>
      </trkpt>
      <trkpt lat="46.437130607664585" lon="8.382503818720579">
        <ele>2023.8199999999999</ele>
        <time>2020-09-06T07:49:47Z</time>
      </trkpt>
      <trkpt lat="46.437154412269592" lon="8.382396530359983">
        <ele>2024.9300000000001</ele>
        <time>2020-09-06T07:49:59Z</time>
      </trkpt>
      <trkpt lat="46.437177043408155" lon="8.382226126268506">
        <ele>2027.0999999999999</ele>
        <time>2020-09-06T07:50:15Z</time>
      </trkpt>
      <trkpt lat="46.437182826921344" lon="8.382101822644472">
        <ele>2028.97</ele>
        <time>2020-09-06T07:50:29Z</time>
      </trkpt>
      <trkpt lat="46.437212247401476" lon="8.381990678608418">
        <ele>2031.5799999999999</ele>
        <time>2020-09-06T07:50:43Z</time>
      </trkpt>
      <trkpt lat="46.437244601547718" lon="8.381860926747322">
        <ele>2034.04</ele>
        <time>2020-09-06T07:50:59Z</time>
      </trkpt>
      <trkpt lat="46.437238398939371" lon="8.381767049431801">
        <ele>2035.6500000000001</ele>
        <time>2020-09-06T07:51:12Z</time>
      </trkpt>
      <trkpt lat="46.437289025634527" lon="8.381705274805427">
        <ele>2038.74</ele>
        <time>2020-09-06T07:51:27Z</time>
      </trkpt>
      <trkpt lat="46.437320876866579" lon="8.381563704460859">
        <ele>2040.47</ele>
        <time>2020-09-06T07:51:42Z</time>
      </trkpt>
      <trkpt lat="46.437352476641536" lon="8.381462702527642">
        <ele>2041.9000000000001</ele>
        <time>2020-09-06T07:51:53Z</time>
      </trkpt>
      <trkpt lat="46.437366558238864" lon="8.381350887939334">
        <ele>2044.05</ele>
        <time>2020-09-06T07:52:08Z</time>
      </trkpt>
      <trkpt lat="46.437387596815825" lon="8.381200851872563">
        <ele>2046.9100000000001</ele>
        <time>2020-09-06T07:52:24Z</time>
      </trkpt>
      <trkpt lat="46.437377873808146" lon="8.381038242951036">
        <ele>2048.48</ele>
        <time>2020-09-06T07:52:39Z</time>
      </trkpt>
      <trkpt lat="46.437386088073254" lon="8.380881501361728">
        <ele>2050.5900000000001</ele>
        <time>2020-09-06T07:52:56Z</time>
      </trkpt>
      <trkpt lat="46.437367144972086" lon="8.380779828876257">
        <ele>2053.04</ele>
        <time>2020-09-06T07:53:11Z</time>
      </trkpt>
      <trkpt lat="46.437320876866579" lon="8.380670780315995">
        <ele>2054.9499999999998</ele>
        <time>2020-09-06T07:53:23Z</time>
      </trkpt>
      <trkpt lat="46.437321128323674" lon="8.380532478913665">
        <ele>2057.1100000000001</ele>
        <time>2020-09-06T07:53:37Z</time>
      </trkpt>
      <trkpt lat="46.437399918213487" lon="8.380558714270592">
        <ele>2056.77</ele>
        <time>2020-09-06T07:53:50Z</time>
      </trkpt>
      <trkpt lat="46.437478121370077" lon="8.380613951012492">
        <ele>2059.0799999999999</ele>
        <time>2020-09-06T07:54:05Z</time>
      </trkpt>
      <trkpt lat="46.437573423609138" lon="8.380689639598131">
        <ele>2060.8699999999999</ele>
        <time>2020-09-06T07:54:19Z</time>
      </trkpt>
      <trkpt lat="46.437616255134344" lon="8.380837244912982">
        <ele>2062.25</ele>
        <time>2020-09-06T07:54:32Z</time>
      </trkpt>
      <trkpt lat="46.437626900151372" lon="8.380985353142023">
        <ele>2064.9200000000001</ele>
        <time>2020-09-06T07:54:46Z</time>
      </trkpt>
      <trkpt lat="46.4376634452492" lon="8.381107561290264">
        <ele>2068.0900000000001</ele>
        <time>2020-09-06T07:55:00Z</time>
      </trkpt>
      <trkpt lat="46.437715496867895" lon="8.381229853257537">
        <ele>2068.8600000000001</ele>
        <time>2020-09-06T07:55:16Z</time>
      </trkpt>
      <trkpt lat="46.437777858227491" lon="8.381310738623142">
        <ele>2069.9000000000001</ele>
        <time>2020-09-06T07:55:29Z</time>
      </trkpt>
      <trkpt lat="46.437805183231831" lon="8.381232284009457">
        <ele>2071.9499999999998</ele>
        <time>2020-09-06T07:55:40Z</time>
      </trkpt>
      <trkpt lat="46.437838710844517" lon="8.381190458312631">
        <ele>2071.8299999999999</ele>
        <time>2020-09-06T07:55:46Z</time>
      </trkpt>
      <trkpt lat="46.437908196821809" lon="8.381084678694606">
        <ele>2074.3499999999999</ele>
        <time>2020-09-06T07:55:59Z</time>
      </trkpt>
      <trkpt lat="46.437947927042842" lon="8.380932966247201">
        <ele>2075.3699999999999</ele>
        <time>2020-09-06T07:56:15Z</time>
      </trkpt>
      <trkpt lat="46.437968546524644" lon="8.380890553817153">
        <ele>2075.5599999999999</ele>
        <time>2020-09-06T07:56:19Z</time>
      </trkpt>
      <trkpt lat="46.437990088015795" lon="8.38086549192667">
        <ele>2076.7800000000002</ele>
        <time>2020-09-06T07:56:22Z</time>
      </trkpt>
      <trkpt lat="46.438010456040502" lon="8.380838921293616">
        <ele>2074.4200000000001</ele>
        <time>2020-09-06T07:56:25Z</time>
      </trkpt>
      <trkpt lat="46.438026381656528" lon="8.380792150273919">
        <ele>2075.9200000000001</ele>
        <time>2020-09-06T07:56:29Z</time>
      </trkpt>
      <trkpt lat="46.438064351677895" lon="8.380625937134028">
        <ele>2076.27</ele>
        <time>2020-09-06T07:56:43Z</time>
      </trkpt>
      <trkpt lat="46.438122019171715" lon="8.380505573004484">
        <ele>2078.6900000000001</ele>
        <time>2020-09-06T07:56:57Z</time>
      </trkpt>
      <trkpt lat="46.438126126304269" lon="8.380496855825186">
        <ele>2078.9899999999998</ele>
        <time>2020-09-06T07:56:58Z</time>
      </trkpt>
      <trkpt lat="46.438173232600093" lon="8.38035000488162">
        <ele>2080.0799999999999</ele>
        <time>2020-09-06T07:57:14Z</time>
      </trkpt>
      <trkpt lat="46.438185470178723" lon="8.380174906924367">
        <ele>2082.73</ele>
        <time>2020-09-06T07:57:32Z</time>
      </trkpt>
      <trkpt lat="46.438208101317286" lon="8.380025122314692">
        <ele>2084.3699999999999</ele>
        <time>2020-09-06T07:57:48Z</time>
      </trkpt>
      <trkpt lat="46.438199300318956" lon="8.37991607375443">
        <ele>2087.4699999999998</ele>
        <time>2020-09-06T07:58:02Z</time>
      </trkpt>
      <trkpt lat="46.438155546784401" lon="8.379779197275639">
        <ele>2089.77</ele>
        <time>2020-09-06T07:58:19Z</time>
      </trkpt>
      <trkpt lat="46.438182117417455" lon="8.379712477326393">
        <ele>2092.6799999999998</ele>
        <time>2020-09-06T07:58:33Z</time>
      </trkpt>
      <trkpt lat="46.43826006911695" lon="8.379724295809865">
        <ele>2094.2399999999998</ele>
        <time>2020-09-06T07:58:46Z</time>
      </trkpt>
      <trkpt lat="46.438265601173043" lon="8.379719350486994">
        <ele>2094.3699999999999</ele>
        <time>2020-09-06T07:58:47Z</time>
      </trkpt>
      <trkpt lat="46.438338691368699" lon="8.379660760983825">
        <ele>2096.7399999999998</ele>
        <time>2020-09-06T07:59:01Z</time>
      </trkpt>
      <trkpt lat="46.438346151262522" lon="8.379619102925062">
        <ele>2098.75</ele>
        <time>2020-09-06T07:59:06Z</time>
      </trkpt>
      <trkpt lat="46.438352856785059" lon="8.379496140405536">
        <ele>2099.5700000000002</ele>
        <time>2020-09-06T07:59:19Z</time>
      </trkpt>
      <trkpt lat="46.438377918675542" lon="8.3793512172997">
        <ele>2100.9499999999998</ele>
        <time>2020-09-06T07:59:33Z</time>
      </trkpt>
      <trkpt lat="46.438469449058175" lon="8.37922029197216">
        <ele>2102.5599999999999</ele>
        <time>2020-09-06T07:59:49Z</time>
      </trkpt>
      <trkpt lat="46.438499540090561" lon="8.379160026088357">
        <ele>2102.3699999999999</ele>
        <time>2020-09-06T07:59:55Z</time>
      </trkpt>
      <trkpt lat="46.438579000532627" lon="8.379024658352137">
        <ele>2102.1900000000001</ele>
        <time>2020-09-06T08:00:10Z</time>
      </trkpt>
      <trkpt lat="46.438600039109588" lon="8.379019126296043">
        <ele>2102.3200000000002</ele>
        <time>2020-09-06T08:00:22Z</time>
      </trkpt>
      <trkpt lat="46.438628034666181" lon="8.379043936729431">
        <ele>2104.21</ele>
        <time>2020-09-06T08:00:33Z</time>
      </trkpt>
      <trkpt lat="46.438650414347649" lon="8.379166731610894">
        <ele>2104.2600000000002</ele>
        <time>2020-09-06T08:00:44Z</time>
      </trkpt>
      <trkpt lat="46.438654605299234" lon="8.37919975630939">
        <ele>2104.9499999999998</ele>
        <time>2020-09-06T08:00:56Z</time>
      </trkpt>
      <trkpt lat="46.438647313043475" lon="8.379153488203883">
        <ele>2104.6599999999999</ele>
        <time>2020-09-06T08:01:24Z</time>
      </trkpt>
      <trkpt lat="46.438609259203076" lon="8.379018707200885">
        <ele>2103.79</ele>
        <time>2020-09-06T08:01:37Z</time>
      </trkpt>
      <trkpt lat="46.43861043266952" lon="8.378986939787865">
        <ele>2102.6500000000001</ele>
        <time>2020-09-06T08:01:41Z</time>
      </trkpt>
      <trkpt lat="46.438613198697567" lon="8.378971936181188">
        <ele>2102.9299999999998</ele>
        <time>2020-09-06T08:01:42Z</time>
      </trkpt>
      <trkpt lat="46.438689474016428" lon="8.378827851265669">
        <ele>2103.2800000000002</ele>
        <time>2020-09-06T08:01:54Z</time>
      </trkpt>
      <trkpt lat="46.438764575868845" lon="8.378618387505412">
        <ele>2105.9299999999998</ele>
        <time>2020-09-06T08:02:09Z</time>
      </trkpt>
      <trkpt lat="46.438791481778026" lon="8.378537921234965">
        <ele>2109.48</ele>
        <time>2020-09-06T08:02:16Z</time>
      </trkpt>
      <trkpt lat="46.438795337453485" lon="8.378526857122779">
        <ele>2109.71</ele>
        <time>2020-09-06T08:02:17Z</time>
      </trkpt>
      <trkpt lat="46.43880246207118" lon="8.378506237640977">
        <ele>2109.27</ele>
        <time>2020-09-06T08:02:19Z</time>
      </trkpt>
      <trkpt lat="46.438820818439126" lon="8.37845116853714">
        <ele>2106.8200000000002</ele>
        <time>2020-09-06T08:02:23Z</time>
      </trkpt>
      <trkpt lat="46.438876055181026" lon="8.378317728638649">
        <ele>2109.9299999999998</ele>
        <time>2020-09-06T08:02:34Z</time>
      </trkpt>
      <trkpt lat="46.438974626362324" lon="8.378192922100425">
        <ele>2111.4699999999998</ele>
        <time>2020-09-06T08:02:48Z</time>
      </trkpt>
      <trkpt lat="46.43914938904345" lon="8.378139361739159">
        <ele>2112.5100000000002</ele>
        <time>2020-09-06T08:03:04Z</time>
      </trkpt>
      <trkpt lat="46.439166655763984" lon="8.37815017439425">
        <ele>2111.8499999999999</ele>
        <time>2020-09-06T08:03:06Z</time>
      </trkpt>
      <trkpt lat="46.439183251932263" lon="8.378182025626302">
        <ele>2111.5799999999999</ele>
        <time>2020-09-06T08:03:14Z</time>
      </trkpt>
      <trkpt lat="46.439184341579676" lon="8.378374809399247">
        <ele>2108.1900000000001</ele>
        <time>2020-09-06T08:03:28Z</time>
      </trkpt>
      <trkpt lat="46.43919238820672" lon="8.378375647589564">
        <ele>2107.3400000000001</ele>
        <time>2020-09-06T08:03:29Z</time>
      </trkpt>
      <trkpt lat="46.439210996031761" lon="8.378367265686393">
        <ele>2106.4299999999998</ele>
        <time>2020-09-06T08:03:31Z</time>
      </trkpt>
      <trkpt lat="46.43921828828752" lon="8.378358380869031">
        <ele>2106.7199999999998</ele>
        <time>2020-09-06T08:03:32Z</time>
      </trkpt>
      <trkpt lat="46.439276626333594" lon="8.378289146348834">
        <ele>2104.5999999999999</ele>
        <time>2020-09-06T08:03:40Z</time>
      </trkpt>
      <trkpt lat="46.439305376261473" lon="8.378325188532472">
        <ele>2102.75</ele>
        <time>2020-09-06T08:03:47Z</time>
      </trkpt>
      <trkpt lat="46.439357595518231" lon="8.378241118043661">
        <ele>2101.1900000000001</ele>
        <time>2020-09-06T08:03:55Z</time>
      </trkpt>
      <trkpt lat="46.439445521682501" lon="8.378113964572549">
        <ele>2099.5100000000002</ele>
        <time>2020-09-06T08:04:09Z</time>
      </trkpt>
      <trkpt lat="46.439446192234755" lon="8.378105582669377">
        <ele>2099.4000000000001</ele>
        <time>2020-09-06T08:04:13Z</time>
      </trkpt>
      <trkpt lat="46.439460860565305" lon="8.378038359805942">
        <ele>2099.9200000000001</ele>
        <time>2020-09-06T08:04:17Z</time>
      </trkpt>
      <trkpt lat="46.439564125612378" lon="8.377855131402612">
        <ele>2098.23</ele>
        <time>2020-09-06T08:04:31Z</time>
      </trkpt>
      <trkpt lat="46.439602850005031" lon="8.377778604626656">
        <ele>2097.9400000000001</ele>
        <time>2020-09-06T08:04:37Z</time>
      </trkpt>
      <trkpt lat="46.43973084166646" lon="8.377696126699448">
        <ele>2096.5900000000001</ele>
        <time>2020-09-06T08:04:50Z</time>
      </trkpt>
      <trkpt lat="46.43978021107614" lon="8.377526476979256">
        <ele>2098.0500000000002</ele>
        <time>2020-09-06T08:05:03Z</time>
      </trkpt>
      <trkpt lat="46.439795969054103" lon="8.377404771745205">
        <ele>2099.75</ele>
        <time>2020-09-06T08:05:15Z</time>
      </trkpt>
      <trkpt lat="46.439809547737241" lon="8.377342829480767">
        <ele>2099.5599999999999</ele>
        <time>2020-09-06T08:05:26Z</time>
      </trkpt>
      <trkpt lat="46.439842656254768" lon="8.377268565818667">
        <ele>2097.8600000000001</ele>
        <time>2020-09-06T08:05:31Z</time>
      </trkpt>
      <trkpt lat="46.439877608790994" lon="8.376996405422688">
        <ele>2098.1599999999999</ele>
        <time>2020-09-06T08:05:49Z</time>
      </trkpt>
      <trkpt lat="46.439872160553932" lon="8.376848883926868">
        <ele>2098.1599999999999</ele>
        <time>2020-09-06T08:06:00Z</time>
      </trkpt>
      <trkpt lat="46.439879620447755" lon="8.376822397112846">
        <ele>2097.1599999999999</ele>
        <time>2020-09-06T08:06:02Z</time>
      </trkpt>
      <trkpt lat="46.439889343455434" lon="8.37677612900734">
        <ele>2097.4299999999998</ele>
        <time>2020-09-06T08:06:05Z</time>
      </trkpt>
      <trkpt lat="46.439942568540573" lon="8.37663154117763">
        <ele>2097</ele>
        <time>2020-09-06T08:06:20Z</time>
      </trkpt>
      <trkpt lat="46.4399394672364" lon="8.376651154831052">
        <ele>2096.8499999999999</ele>
        <time>2020-09-06T08:06:38Z</time>
      </trkpt>
      <trkpt lat="46.439915746450424" lon="8.376672863960266">
        <ele>2096.9699999999998</ele>
        <time>2020-09-06T08:06:47Z</time>
      </trkpt>
      <trkpt lat="46.4399135671556" lon="8.376675881445408">
        <ele>2095.9299999999998</ele>
        <time>2020-09-06T08:06:55Z</time>
      </trkpt>
      <trkpt lat="46.439914992079139" lon="8.376662638038397">
        <ele>2095.4299999999998</ele>
        <time>2020-09-06T08:07:20Z</time>
      </trkpt>
      <trkpt lat="46.439908538013697" lon="8.376649646088481">
        <ele>2097.1799999999998</ele>
        <time>2020-09-06T08:07:32Z</time>
      </trkpt>
      <trkpt lat="46.439906861633062" lon="8.376654339954257">
        <ele>2096.9400000000001</ele>
        <time>2020-09-06T08:07:47Z</time>
      </trkpt>
      <trkpt lat="46.439922954887152" lon="8.376643778756261">
        <ele>2096.5500000000002</ele>
        <time>2020-09-06T08:07:53Z</time>
      </trkpt>
      <trkpt lat="46.439956733956933" lon="8.376589044928551">
        <ele>2096.8600000000001</ele>
        <time>2020-09-06T08:07:58Z</time>
      </trkpt>
      <trkpt lat="46.440077433362603" lon="8.376507153734565">
        <ele>2096.1700000000001</ele>
        <time>2020-09-06T08:08:11Z</time>
      </trkpt>
      <trkpt lat="46.440202407538891" lon="8.376449318602681">
        <ele>2097.21</ele>
        <time>2020-09-06T08:08:24Z</time>
      </trkpt>
      <trkpt lat="46.440342636778951" lon="8.376342533156276">
        <ele>2097.0799999999999</ele>
        <time>2020-09-06T08:08:39Z</time>
      </trkpt>
      <trkpt lat="46.440424360334873" lon="8.376216972246766">
        <ele>2097.0599999999999</ele>
        <time>2020-09-06T08:08:50Z</time>
      </trkpt>
      <trkpt lat="46.440537599846721" lon="8.376053357496858">
        <ele>2098.1300000000001</ele>
        <time>2020-09-06T08:09:05Z</time>
      </trkpt>
      <trkpt lat="46.440631812438369" lon="8.375770719721913">
        <ele>2097.8600000000001</ele>
        <time>2020-09-06T08:09:23Z</time>
      </trkpt>
      <trkpt lat="46.440725857391953" lon="8.375524124130607">
        <ele>2098.8299999999999</ele>
        <time>2020-09-06T08:09:40Z</time>
      </trkpt>
      <trkpt lat="46.44081512466073" lon="8.375319940969348">
        <ele>2099</ele>
        <time>2020-09-06T08:09:55Z</time>
      </trkpt>
      <trkpt lat="46.440921407192945" lon="8.375057587400079">
        <ele>2099.6999999999998</ele>
        <time>2020-09-06T08:10:15Z</time>
      </trkpt>
      <trkpt lat="46.44097781740129" lon="8.374870084226131">
        <ele>2101.0500000000002</ele>
        <time>2020-09-06T08:10:31Z</time>
      </trkpt>
      <trkpt lat="46.441040094941854" lon="8.37466330267489">
        <ele>2102.3499999999999</ele>
        <time>2020-09-06T08:10:48Z</time>
      </trkpt>
      <trkpt lat="46.441073706373572" lon="8.374451156705618">
        <ele>2103.2399999999998</ele>
        <time>2020-09-06T08:11:04Z</time>
      </trkpt>
      <trkpt lat="46.441072281450033" lon="8.37424605153501">
        <ele>2103.8699999999999</ele>
        <time>2020-09-06T08:11:18Z</time>
      </trkpt>
      <trkpt lat="46.441087871789932" lon="8.374095931649208">
        <ele>2104.3099999999999</ele>
        <time>2020-09-06T08:11:28Z</time>
      </trkpt>
      <trkpt lat="46.441093487665057" lon="8.374065337702632">
        <ele>2103.3099999999999</ele>
        <time>2020-09-06T08:11:30Z</time>
      </trkpt>
      <trkpt lat="46.441135983914137" lon="8.373821089044213">
        <ele>2104.0500000000002</ele>
        <time>2020-09-06T08:11:47Z</time>
      </trkpt>
      <trkpt lat="46.441170768812299" lon="8.373628221452236">
        <ele>2104.1700000000001</ele>
        <time>2020-09-06T08:12:02Z</time>
      </trkpt>
      <trkpt lat="46.441211504861712" lon="8.373404424637556">
        <ele>2104.3200000000002</ele>
        <time>2020-09-06T08:12:19Z</time>
      </trkpt>
      <trkpt lat="46.441239165142179" lon="8.373222788795829">
        <ele>2105.3099999999999</ele>
        <time>2020-09-06T08:12:35Z</time>
      </trkpt>
      <trkpt lat="46.441265484318137" lon="8.373079877346754">
        <ele>2105.4899999999998</ele>
        <time>2020-09-06T08:12:48Z</time>
      </trkpt>
      <trkpt lat="46.441288786008954" lon="8.372904947027564">
        <ele>2107.1300000000001</ele>
        <time>2020-09-06T08:13:03Z</time>
      </trkpt>
      <trkpt lat="46.44131694920361" lon="8.372713755816221">
        <ele>2107.6100000000001</ele>
        <time>2020-09-06T08:13:17Z</time>
      </trkpt>
      <trkpt lat="46.441342178732157" lon="8.372544692829251">
        <ele>2107.7600000000002</ele>
        <time>2020-09-06T08:13:30Z</time>
      </trkpt>
      <trkpt lat="46.44135064445436" lon="8.372382922098041">
        <ele>2108.6500000000001</ele>
        <time>2020-09-06T08:13:44Z</time>
      </trkpt>
      <trkpt lat="46.441356930881739" lon="8.37217815220356">
        <ele>2109.5</ele>
        <time>2020-09-06T08:14:00Z</time>
      </trkpt>
      <trkpt lat="46.44134528003633" lon="8.371988637372851">
        <ele>2109.8499999999999</ele>
        <time>2020-09-06T08:14:15Z</time>
      </trkpt>
      <trkpt lat="46.441317619755864" lon="8.371839942410588">
        <ele>2110.6700000000001</ele>
        <time>2020-09-06T08:14:29Z</time>
      </trkpt>
      <trkpt lat="46.441318793222308" lon="8.371764421463013">
        <ele>2111.6500000000001</ele>
        <time>2020-09-06T08:14:40Z</time>
      </trkpt>
      <trkpt lat="46.441322062164545" lon="8.371637603268027">
        <ele>2113.98</ele>
        <time>2020-09-06T08:14:54Z</time>
      </trkpt>
      <trkpt lat="46.441296497359872" lon="8.371535344049335">
        <ele>2115.3200000000002</ele>
        <time>2020-09-06T08:15:09Z</time>
      </trkpt>
      <trkpt lat="46.441268669441342" lon="8.371450351551175">
        <ele>2117.1999999999998</ele>
        <time>2020-09-06T08:15:23Z</time>
      </trkpt>
      <trkpt lat="46.441275458782911" lon="8.371390337124467">
        <ele>2118.0999999999999</ele>
        <time>2020-09-06T08:15:35Z</time>
      </trkpt>
      <trkpt lat="46.44129247404635" lon="8.371324958279729">
        <ele>2119.3800000000001</ele>
        <time>2020-09-06T08:15:42Z</time>
      </trkpt>
      <trkpt lat="46.441379813477397" lon="8.371236445382237">
        <ele>2121.6799999999998</ele>
        <time>2020-09-06T08:15:56Z</time>
      </trkpt>
      <trkpt lat="46.441477797925472" lon="8.371251784265041">
        <ele>2124.3600000000001</ele>
        <time>2020-09-06T08:16:12Z</time>
      </trkpt>
      <trkpt lat="46.441540997475386" lon="8.371246671304107">
        <ele>2126.1900000000001</ele>
        <time>2020-09-06T08:16:24Z</time>
      </trkpt>
      <trkpt lat="46.441560527309775" lon="8.371166540309787">
        <ele>2128.79</ele>
        <time>2020-09-06T08:16:37Z</time>
      </trkpt>
      <trkpt lat="46.441591791808605" lon="8.371032681316137">
        <ele>2130.9699999999998</ele>
        <time>2020-09-06T08:16:52Z</time>
      </trkpt>
      <trkpt lat="46.441646106541157" lon="8.370938720181584">
        <ele>2133.21</ele>
        <time>2020-09-06T08:17:07Z</time>
      </trkpt>
      <trkpt lat="46.44166094250977" lon="8.370860768482089">
        <ele>2135.6999999999998</ele>
        <time>2020-09-06T08:17:18Z</time>
      </trkpt>
      <trkpt lat="46.441643089056015" lon="8.370786756277084">
        <ele>2137.23</ele>
        <time>2020-09-06T08:17:31Z</time>
      </trkpt>
      <trkpt lat="46.441564382985234" lon="8.370802011340857">
        <ele>2139.9000000000001</ele>
        <time>2020-09-06T08:17:48Z</time>
      </trkpt>
      <trkpt lat="46.441547032445669" lon="8.370738225057721">
        <ele>2142.5799999999999</ele>
        <time>2020-09-06T08:18:01Z</time>
      </trkpt>
      <trkpt lat="46.441498920321465" lon="8.370647197589278">
        <ele>2144.3299999999999</ele>
        <time>2020-09-06T08:18:14Z</time>
      </trkpt>
      <trkpt lat="46.44146790727973" lon="8.37051535025239">
        <ele>2146.5</ele>
        <time>2020-09-06T08:18:29Z</time>
      </trkpt>
      <trkpt lat="46.441432200372219" lon="8.3704474568367">
        <ele>2147.8899999999999</ele>
        <time>2020-09-06T08:18:43Z</time>
      </trkpt>
      <trkpt lat="46.441377382725477" lon="8.370488695800304">
        <ele>2149.9000000000001</ele>
        <time>2020-09-06T08:18:54Z</time>
      </trkpt>
      <trkpt lat="46.441340083256364" lon="8.370523313060403">
        <ele>2150.6399999999999</ele>
        <time>2020-09-06T08:18:59Z</time>
      </trkpt>
      <trkpt lat="46.44123924896121" lon="8.370584333315492">
        <ele>2151.9400000000001</ele>
        <time>2020-09-06T08:19:15Z</time>
      </trkpt>
      <trkpt lat="46.441180408000946" lon="8.370524067431688">
        <ele>2154.2600000000002</ele>
        <time>2020-09-06T08:19:30Z</time>
      </trkpt>
      <trkpt lat="46.441193651407957" lon="8.370411079376936">
        <ele>2156.9400000000001</ele>
        <time>2020-09-06T08:19:45Z</time>
      </trkpt>
      <trkpt lat="46.441212510690093" lon="8.370242435485125">
        <ele>2159.9400000000001</ele>
        <time>2020-09-06T08:20:02Z</time>
      </trkpt>
      <trkpt lat="46.441214941442013" lon="8.370109666138887">
        <ele>2162.7199999999998</ele>
        <time>2020-09-06T08:20:17Z</time>
      </trkpt>
      <trkpt lat="46.44119331613183" lon="8.369981255382299">
        <ele>2164.46</ele>
        <time>2020-09-06T08:20:33Z</time>
      </trkpt>
      <trkpt lat="46.441158866509795" lon="8.369844378903508">
        <ele>2166.9000000000001</ele>
        <time>2020-09-06T08:20:52Z</time>
      </trkpt>
      <trkpt lat="46.441125003620982" lon="8.36970473639667">
        <ele>2169.0999999999999</ele>
        <time>2020-09-06T08:21:09Z</time>
      </trkpt>
      <trkpt lat="46.441097259521484" lon="8.369665844365954">
        <ele>2170.4200000000001</ele>
        <time>2020-09-06T08:21:22Z</time>
      </trkpt>
      <trkpt lat="46.441059121862054" lon="8.369847983121872">
        <ele>2172.3200000000002</ele>
        <time>2020-09-06T08:21:36Z</time>
      </trkpt>
      <trkpt lat="46.440992318093777" lon="8.369969436898828">
        <ele>2175.1999999999998</ele>
        <time>2020-09-06T08:21:53Z</time>
      </trkpt>
      <trkpt lat="46.440930208191276" lon="8.370007071644068">
        <ele>2177.0300000000002</ele>
        <time>2020-09-06T08:22:07Z</time>
      </trkpt>
      <trkpt lat="46.440939260646701" lon="8.369870530441403">
        <ele>2179.0599999999999</ele>
        <time>2020-09-06T08:22:22Z</time>
      </trkpt>
      <trkpt lat="46.440936243161559" lon="8.369710436090827">
        <ele>2180.8200000000002</ele>
        <time>2020-09-06T08:22:39Z</time>
      </trkpt>
      <trkpt lat="46.440875809639692" lon="8.369779922068119">
        <ele>2183.1900000000001</ele>
        <time>2020-09-06T08:22:53Z</time>
      </trkpt>
      <trkpt lat="46.440831553190947" lon="8.369809594005346">
        <ele>2185.79</ele>
        <time>2020-09-06T08:23:05Z</time>
      </trkpt>
      <trkpt lat="46.440809341147542" lon="8.369755111634731">
        <ele>2187.6599999999999</ele>
        <time>2020-09-06T08:23:17Z</time>
      </trkpt>
      <trkpt lat="46.440753350034356" lon="8.369687385857105">
        <ele>2189.1999999999998</ele>
        <time>2020-09-06T08:23:32Z</time>
      </trkpt>
      <trkpt lat="46.440702136605978" lon="8.369631059467793">
        <ele>2192.5599999999999</ele>
        <time>2020-09-06T08:23:45Z</time>
      </trkpt>
      <trkpt lat="46.440630555152893" lon="8.369612535461783">
        <ele>2194.5599999999999</ele>
        <time>2020-09-06T08:24:01Z</time>
      </trkpt>
      <trkpt lat="46.44055662676692" lon="8.36965586990118">
        <ele>2197.5900000000001</ele>
        <time>2020-09-06T08:24:19Z</time>
      </trkpt>
      <trkpt lat="46.440480267629027" lon="8.369717309251428">
        <ele>2199.7399999999998</ele>
        <time>2020-09-06T08:24:35Z</time>
      </trkpt>
      <trkpt lat="46.440419415012002" lon="8.369771288707852">
        <ele>2202.8699999999999</ele>
        <time>2020-09-06T08:24:48Z</time>
      </trkpt>
      <trkpt lat="46.44037096761167" lon="8.369730468839407">
        <ele>2204.7399999999998</ele>
        <time>2020-09-06T08:25:02Z</time>
      </trkpt>
      <trkpt lat="46.440392173826694" lon="8.369646901264787">
        <ele>2207.7399999999998</ele>
        <time>2020-09-06T08:25:15Z</time>
      </trkpt>
      <trkpt lat="46.440394185483456" lon="8.369555789977312">
        <ele>2210.6100000000001</ele>
        <time>2020-09-06T08:25:30Z</time>
      </trkpt>
      <trkpt lat="46.440346408635378" lon="8.369582863524556">
        <ele>2212.6100000000001</ele>
        <time>2020-09-06T08:25:43Z</time>
      </trkpt>
      <trkpt lat="46.440272899344563" lon="8.369606835767627">
        <ele>2214.71</ele>
        <time>2020-09-06T08:25:57Z</time>
      </trkpt>
      <trkpt lat="46.440217159688473" lon="8.369577415287495">
        <ele>2216.6599999999999</ele>
        <time>2020-09-06T08:26:10Z</time>
      </trkpt>
      <trkpt lat="46.440247921273112" lon="8.369473814964294">
        <ele>2219.2600000000002</ele>
        <time>2020-09-06T08:26:25Z</time>
      </trkpt>
      <trkpt lat="46.440256554633379" lon="8.36939443834126">
        <ele>2222.3299999999999</ele>
        <time>2020-09-06T08:26:37Z</time>
      </trkpt>
      <trkpt lat="46.440208191052079" lon="8.369353534653783">
        <ele>2224.73</ele>
        <time>2020-09-06T08:26:51Z</time>
      </trkpt>
      <trkpt lat="46.440248759463429" lon="8.369320509955287">
        <ele>2226.9400000000001</ele>
        <time>2020-09-06T08:27:04Z</time>
      </trkpt>
      <trkpt lat="46.44027516245842" lon="8.3692732360214">
        <ele>2229.0700000000002</ele>
        <time>2020-09-06T08:27:17Z</time>
      </trkpt>
      <trkpt lat="46.440277928486466" lon="8.369183968752623">
        <ele>2231.6399999999999</ele>
        <time>2020-09-06T08:27:26Z</time>
      </trkpt>
      <trkpt lat="46.440225625410676" lon="8.369130492210388">
        <ele>2233.6399999999999</ele>
        <time>2020-09-06T08:27:40Z</time>
      </trkpt>
      <trkpt lat="46.4401466678828" lon="8.369166618213058">
        <ele>2235.3299999999999</ele>
        <time>2020-09-06T08:27:53Z</time>
      </trkpt>
      <trkpt lat="46.44007827155292" lon="8.369088498875499">
        <ele>2237.54</ele>
        <time>2020-09-06T08:28:09Z</time>
      </trkpt>
      <trkpt lat="46.440107524394989" lon="8.369011888280511">
        <ele>2240.0300000000002</ele>
        <time>2020-09-06T08:28:21Z</time>
      </trkpt>
      <trkpt lat="46.440134095028043" lon="8.36896201595664">
        <ele>2242.1599999999999</ele>
        <time>2020-09-06T08:28:32Z</time>
      </trkpt>
      <trkpt lat="46.440071733668447" lon="8.368939636275172">
        <ele>2243.02</ele>
        <time>2020-09-06T08:28:45Z</time>
      </trkpt>
      <trkpt lat="46.440080534666777" lon="8.368873000144959">
        <ele>2245.0700000000002</ele>
        <time>2020-09-06T08:28:54Z</time>
      </trkpt>
      <trkpt lat="46.440073577687144" lon="8.368790941312909">
        <ele>2247.2199999999998</ele>
        <time>2020-09-06T08:29:05Z</time>
      </trkpt>
      <trkpt lat="46.44002303481102" lon="8.368707541376352">
        <ele>2249.98</ele>
        <time>2020-09-06T08:29:20Z</time>
      </trkpt>
      <trkpt lat="46.439947597682476" lon="8.368702428415418">
        <ele>2252.02</ele>
        <time>2020-09-06T08:29:36Z</time>
      </trkpt>
      <trkpt lat="46.439960170537233" lon="8.368608802556992">
        <ele>2253.7800000000002</ele>
        <time>2020-09-06T08:29:48Z</time>
      </trkpt>
      <trkpt lat="46.439941981807351" lon="8.368553901091218">
        <ele>2256.1100000000001</ele>
        <time>2020-09-06T08:30:01Z</time>
      </trkpt>
      <trkpt lat="46.439930833876133" lon="8.36855691857636">
        <ele>2256.6900000000001</ele>
        <time>2020-09-06T08:30:14Z</time>
      </trkpt>
      <trkpt lat="46.439857911318541" lon="8.368548871949315">
        <ele>2259</ele>
        <time>2020-09-06T08:30:29Z</time>
      </trkpt>
      <trkpt lat="46.43987400457263" lon="8.368466813117266">
        <ele>2262.0300000000002</ele>
        <time>2020-09-06T08:30:43Z</time>
      </trkpt>
      <trkpt lat="46.439888421446085" lon="8.368417108431459">
        <ele>2264.4499999999998</ele>
        <time>2020-09-06T08:30:51Z</time>
      </trkpt>
      <trkpt lat="46.439907951280475" lon="8.36830772459507">
        <ele>2267.2600000000002</ele>
        <time>2020-09-06T08:31:05Z</time>
      </trkpt>
      <trkpt lat="46.439898815006018" lon="8.368154084309936">
        <ele>2269.02</ele>
        <time>2020-09-06T08:31:22Z</time>
      </trkpt>
      <trkpt lat="46.439888924360275" lon="8.368031708523631">
        <ele>2270.3600000000001</ele>
        <time>2020-09-06T08:31:36Z</time>
      </trkpt>
      <trkpt lat="46.439854642376304" lon="8.367894915863872">
        <ele>2273.1100000000001</ele>
        <time>2020-09-06T08:31:53Z</time>
      </trkpt>
      <trkpt lat="46.439839135855436" lon="8.367775054648519">
        <ele>2275.48</ele>
        <time>2020-09-06T08:32:07Z</time>
      </trkpt>
      <trkpt lat="46.439818432554603" lon="8.367666676640511">
        <ele>2278.5100000000002</ele>
        <time>2020-09-06T08:32:22Z</time>
      </trkpt>
      <trkpt lat="46.439780294895172" lon="8.367600878700614">
        <ele>2280.4699999999998</ele>
        <time>2020-09-06T08:32:38Z</time>
      </trkpt>
      <trkpt lat="46.439763363450766" lon="8.367660054937005">
        <ele>2281.8099999999999</ele>
        <time>2020-09-06T08:32:52Z</time>
      </trkpt>
      <trkpt lat="46.439723046496511" lon="8.367739766836166">
        <ele>2283.6900000000001</ele>
        <time>2020-09-06T08:33:06Z</time>
      </trkpt>
      <trkpt lat="46.43967904150486" lon="8.36783423088491">
        <ele>2286.29</ele>
        <time>2020-09-06T08:33:19Z</time>
      </trkpt>
      <trkpt lat="46.439606957137585" lon="8.367880415171385">
        <ele>2288.3600000000001</ele>
        <time>2020-09-06T08:33:34Z</time>
      </trkpt>
      <trkpt lat="46.439547697082162" lon="8.367887288331986">
        <ele>2290.2800000000002</ele>
        <time>2020-09-06T08:33:46Z</time>
      </trkpt>
      <trkpt lat="46.43949531018734" lon="8.367855018004775">
        <ele>2292.4400000000001</ele>
        <time>2020-09-06T08:33:57Z</time>
      </trkpt>
      <trkpt lat="46.439498411491513" lon="8.367795841768384">
        <ele>2294.6100000000001</ele>
        <time>2020-09-06T08:34:08Z</time>
      </trkpt>
      <trkpt lat="46.43949874676764" lon="8.367769019678235">
        <ele>2294.9299999999998</ele>
        <time>2020-09-06T08:34:19Z</time>
      </trkpt>
      <trkpt lat="46.439500423148274" lon="8.36776290088892">
        <ele>2294.71</ele>
        <time>2020-09-06T08:34:28Z</time>
      </trkpt>
      <trkpt lat="46.439490700140595" lon="8.367774300277233">
        <ele>2294.1999999999998</ele>
        <time>2020-09-06T08:34:56Z</time>
      </trkpt>
      <trkpt lat="46.4394870121032" lon="8.367772372439504">
        <ele>2295.2600000000002</ele>
        <time>2020-09-06T08:35:10Z</time>
      </trkpt>
      <trkpt lat="46.439489359036088" lon="8.367776647210121">
        <ele>2295.8899999999999</ele>
        <time>2020-09-06T08:35:21Z</time>
      </trkpt>
      <trkpt lat="46.439495058730245" lon="8.367761559784412">
        <ele>2295.8499999999999</ele>
        <time>2020-09-06T08:35:36Z</time>
      </trkpt>
      <trkpt lat="46.439490783959627" lon="8.367763236165047">
        <ele>2295.8299999999999</ele>
        <time>2020-09-06T08:35:54Z</time>
      </trkpt>
      <trkpt lat="46.439499752596021" lon="8.367754770442843">
        <ele>2296.3299999999999</ele>
        <time>2020-09-06T08:36:13Z</time>
      </trkpt>
      <trkpt lat="46.439488604664803" lon="8.36767690256238">
        <ele>2297.3699999999999</ele>
        <time>2020-09-06T08:36:29Z</time>
      </trkpt>
      <trkpt lat="46.439500087872148" lon="8.367551928386092">
        <ele>2300.3800000000001</ele>
        <time>2020-09-06T08:36:42Z</time>
      </trkpt>
      <trkpt lat="46.4394835755229" lon="8.367435336112976">
        <ele>2302.9099999999999</ele>
        <time>2020-09-06T08:36:55Z</time>
      </trkpt>
      <trkpt lat="46.439439570531249" lon="8.367445226758719">
        <ele>2304.1799999999998</ele>
        <time>2020-09-06T08:37:05Z</time>
      </trkpt>
      <trkpt lat="46.439370000734925" lon="8.367427540943027">
        <ele>2306.2600000000002</ele>
        <time>2020-09-06T08:37:18Z</time>
      </trkpt>
      <trkpt lat="46.439279476180673" lon="8.367391414940357">
        <ele>2307.8800000000001</ele>
        <time>2020-09-06T08:37:33Z</time>
      </trkpt>
      <trkpt lat="46.439206972718239" lon="8.367357384413481">
        <ele>2310.25</ele>
        <time>2020-09-06T08:37:47Z</time>
      </trkpt>
      <trkpt lat="46.439227256923914" lon="8.367254873737693">
        <ele>2312.6799999999998</ele>
        <time>2020-09-06T08:38:00Z</time>
      </trkpt>
      <trkpt lat="46.439252737909555" lon="8.367151189595461">
        <ele>2314.98</ele>
        <time>2020-09-06T08:38:13Z</time>
      </trkpt>
      <trkpt lat="46.439220467582345" lon="8.36708371527493">
        <ele>2317.6199999999999</ele>
        <time>2020-09-06T08:38:27Z</time>
      </trkpt>
      <trkpt lat="46.439157268032432" lon="8.367066364735365">
        <ele>2320.0300000000002</ele>
        <time>2020-09-06T08:38:41Z</time>
      </trkpt>
      <trkpt lat="46.43911762163043" lon="8.36706854403019">
        <ele>2321.5300000000002</ele>
        <time>2020-09-06T08:38:52Z</time>
      </trkpt>
      <trkpt lat="46.439055344089866" lon="8.367091007530689">
        <ele>2323.4099999999999</ele>
        <time>2020-09-06T08:39:06Z</time>
      </trkpt>
      <trkpt lat="46.438997592777014" lon="8.367100646719337">
        <ele>2325.46</ele>
        <time>2020-09-06T08:39:19Z</time>
      </trkpt>
      <trkpt lat="46.438945792615414" lon="8.367131324484944">
        <ele>2327.71</ele>
        <time>2020-09-06T08:39:33Z</time>
      </trkpt>
      <trkpt lat="46.43889625556767" lon="8.367161834612489">
        <ele>2329.52</ele>
        <time>2020-09-06T08:39:45Z</time>
      </trkpt>
      <trkpt lat="46.438860464841127" lon="8.367147417739034">
        <ele>2331.3600000000001</ele>
        <time>2020-09-06T08:39:58Z</time>
      </trkpt>
      <trkpt lat="46.438884101808071" lon="8.367061084136367">
        <ele>2333</ele>
        <time>2020-09-06T08:40:11Z</time>
      </trkpt>
      <trkpt lat="46.438895668834448" lon="8.366964524611831">
        <ele>2335.1199999999999</ele>
        <time>2020-09-06T08:40:24Z</time>
      </trkpt>
      <trkpt lat="46.438887538388371" lon="8.366857906803489">
        <ele>2337.0300000000002</ele>
        <time>2020-09-06T08:40:38Z</time>
      </trkpt>
      <trkpt lat="46.438916623592377" lon="8.36675045080483">
        <ele>2339.4400000000001</ele>
        <time>2020-09-06T08:40:52Z</time>
      </trkpt>
      <trkpt lat="46.438921233639121" lon="8.366667805239558">
        <ele>2341.5300000000002</ele>
        <time>2020-09-06T08:41:04Z</time>
      </trkpt>
      <trkpt lat="46.438922826200724" lon="8.366572335362434">
        <ele>2343.6900000000001</ele>
        <time>2020-09-06T08:41:18Z</time>
      </trkpt>
      <trkpt lat="46.438932800665498" lon="8.366490444168448">
        <ele>2345.6100000000001</ele>
        <time>2020-09-06T08:41:31Z</time>
      </trkpt>
      <trkpt lat="46.438920479267836" lon="8.366373851895332">
        <ele>2348.1999999999998</ele>
        <time>2020-09-06T08:41:46Z</time>
      </trkpt>
      <trkpt lat="46.438908996060491" lon="8.366310065612197">
        <ele>2349.6799999999998</ele>
        <time>2020-09-06T08:41:59Z</time>
      </trkpt>
      <trkpt lat="46.438906146213412" lon="8.366288440302014">
        <ele>2349.9400000000001</ele>
        <time>2020-09-06T08:42:13Z</time>
      </trkpt>
      <trkpt lat="46.438874546438456" lon="8.366144774481654">
        <ele>2353.0100000000002</ele>
        <time>2020-09-06T08:42:30Z</time>
      </trkpt>
      <trkpt lat="46.438836073502898" lon="8.366010161116719">
        <ele>2355.4499999999998</ele>
        <time>2020-09-06T08:42:44Z</time>
      </trkpt>
      <trkpt lat="46.438803719356656" lon="8.365840762853622">
        <ele>2358.4699999999998</ele>
        <time>2020-09-06T08:43:01Z</time>
      </trkpt>
      <trkpt lat="46.43876432441175" lon="8.365739341825247">
        <ele>2360.5799999999999</ele>
        <time>2020-09-06T08:43:16Z</time>
      </trkpt>
      <trkpt lat="46.438718223944306" lon="8.365882420912385">
        <ele>2363.3600000000001</ele>
        <time>2020-09-06T08:43:31Z</time>
      </trkpt>
      <trkpt lat="46.4387237560004" lon="8.366019129753113">
        <ele>2363.8000000000002</ele>
        <time>2020-09-06T08:43:44Z</time>
      </trkpt>
      <trkpt lat="46.438710764050484" lon="8.366094063967466">
        <ele>2364.4299999999998</ele>
        <time>2020-09-06T08:43:57Z</time>
      </trkpt>
      <trkpt lat="46.438690982758999" lon="8.366157598793507">
        <ele>2365.0100000000002</ele>
        <time>2020-09-06T08:44:12Z</time>
      </trkpt>
      <trkpt lat="46.438669692724943" lon="8.366082916036248">
        <ele>2366.7600000000002</ele>
        <time>2020-09-06T08:44:23Z</time>
      </trkpt>
      <trkpt lat="46.438648905605078" lon="8.365989793092012">
        <ele>2369.3299999999999</ele>
        <time>2020-09-06T08:44:35Z</time>
      </trkpt>
      <trkpt lat="46.438590316101909" lon="8.365816874429584">
        <ele>2372.3899999999999</ele>
        <time>2020-09-06T08:44:53Z</time>
      </trkpt>
      <trkpt lat="46.438542455434799" lon="8.365714363753796">
        <ele>2375.29</ele>
        <time>2020-09-06T08:45:07Z</time>
      </trkpt>
      <trkpt lat="46.438500126823783" lon="8.365584528073669">
        <ele>2376.8800000000001</ele>
        <time>2020-09-06T08:45:20Z</time>
      </trkpt>
      <trkpt lat="46.438469616696239" lon="8.365488471463323">
        <ele>2378.8600000000001</ele>
        <time>2020-09-06T08:45:33Z</time>
      </trkpt>
      <trkpt lat="46.43844380043447" lon="8.365403898060322">
        <ele>2380.8499999999999</ele>
        <time>2020-09-06T08:45:45Z</time>
      </trkpt>
      <trkpt lat="46.438411781564355" lon="8.365266099572182">
        <ele>2382.96</ele>
        <time>2020-09-06T08:46:01Z</time>
      </trkpt>
      <trkpt lat="46.438380852341652" lon="8.365153698250651">
        <ele>2385.52</ele>
        <time>2020-09-06T08:46:15Z</time>
      </trkpt>
      <trkpt lat="46.438340786844492" lon="8.3650285564363">
        <ele>2387.2600000000002</ele>
        <time>2020-09-06T08:46:29Z</time>
      </trkpt>
      <trkpt lat="46.438308097422123" lon="8.364936271682382">
        <ele>2387.7600000000002</ele>
        <time>2020-09-06T08:46:38Z</time>
      </trkpt>
      <trkpt lat="46.438256297260523" lon="8.364782379940152">
        <ele>2388.1100000000001</ele>
        <time>2020-09-06T08:46:53Z</time>
      </trkpt>
      <trkpt lat="46.438239449635148" lon="8.364694537594914">
        <ele>2390.2199999999998</ele>
        <time>2020-09-06T08:47:05Z</time>
      </trkpt>
      <trkpt lat="46.438179099932313" lon="8.364592110738158">
        <ele>2392.3699999999999</ele>
        <time>2020-09-06T08:47:19Z</time>
      </trkpt>
      <trkpt lat="46.43810274079442" lon="8.364477613940835">
        <ele>2394.2800000000002</ele>
        <time>2020-09-06T08:47:35Z</time>
      </trkpt>
      <trkpt lat="46.438028393313289" lon="8.364387759938836">
        <ele>2397.3400000000001</ele>
        <time>2020-09-06T08:47:50Z</time>
      </trkpt>
      <trkpt lat="46.437949184328318" lon="8.364308718591929">
        <ele>2399.2600000000002</ele>
        <time>2020-09-06T08:48:05Z</time>
      </trkpt>
      <trkpt lat="46.437870729714632" lon="8.36424526758492">
        <ele>2400.1700000000001</ele>
        <time>2020-09-06T08:48:18Z</time>
      </trkpt>
      <trkpt lat="46.437799986451864" lon="8.364164717495441">
        <ele>2402.1799999999998</ele>
        <time>2020-09-06T08:48:32Z</time>
      </trkpt>
      <trkpt lat="46.437709461897612" lon="8.364096404984593">
        <ele>2403.8299999999999</ele>
        <time>2020-09-06T08:48:47Z</time>
      </trkpt>
      <trkpt lat="46.437635449692607" lon="8.364033875986934">
        <ele>2405.6399999999999</ele>
        <time>2020-09-06T08:49:01Z</time>
      </trkpt>
      <trkpt lat="46.437564035877585" lon="8.36395843885839">
        <ele>2407.6999999999998</ele>
        <time>2020-09-06T08:49:16Z</time>
      </trkpt>
      <trkpt lat="46.43748021684587" lon="8.363924827426672">
        <ele>2410.04</ele>
        <time>2020-09-06T08:49:31Z</time>
      </trkpt>
      <trkpt lat="46.437445767223835" lon="8.363899178802967">
        <ele>2410.9400000000001</ele>
        <time>2020-09-06T08:49:46Z</time>
      </trkpt>
      <trkpt lat="46.437411485239863" lon="8.363867327570915">
        <ele>2412.0900000000001</ele>
        <time>2020-09-06T08:49:57Z</time>
      </trkpt>
      <trkpt lat="46.437384746968746" lon="8.363855257630348">
        <ele>2412.0500000000002</ele>
        <time>2020-09-06T08:50:08Z</time>
      </trkpt>
      <trkpt lat="46.437329258769751" lon="8.363801697269082">
        <ele>2413.5999999999999</ele>
        <time>2020-09-06T08:50:20Z</time>
      </trkpt>
      <trkpt lat="46.437325738370419" lon="8.363814102485776">
        <ele>2414.1900000000001</ele>
        <time>2020-09-06T08:50:35Z</time>
      </trkpt>
      <trkpt lat="46.437318362295628" lon="8.363882917910814">
        <ele>2415.21</ele>
        <time>2020-09-06T08:50:47Z</time>
      </trkpt>
      <trkpt lat="46.437325235456228" lon="8.363928096368909">
        <ele>2415.8699999999999</ele>
        <time>2020-09-06T08:51:00Z</time>
      </trkpt>
      <trkpt lat="46.437310483306646" lon="8.364051645621657">
        <ele>2417.27</ele>
        <time>2020-09-06T08:51:13Z</time>
      </trkpt>
      <trkpt lat="46.437208643183112" lon="8.364029685035348">
        <ele>2419.1100000000001</ele>
        <time>2020-09-06T08:51:27Z</time>
      </trkpt>
      <trkpt lat="46.437111077830195" lon="8.364056507125497">
        <ele>2421.9499999999998</ele>
        <time>2020-09-06T08:51:42Z</time>
      </trkpt>
      <trkpt lat="46.437012758105993" lon="8.364102523773909">
        <ele>2421.8400000000001</ele>
        <time>2020-09-06T08:51:55Z</time>
      </trkpt>
      <trkpt lat="46.43693539313972" lon="8.364109229296446">
        <ele>2421.5500000000002</ele>
        <time>2020-09-06T08:52:04Z</time>
      </trkpt>
      <trkpt lat="46.436828607693315" lon="8.364160275086761">
        <ele>2420.5599999999999</ele>
        <time>2020-09-06T08:52:16Z</time>
      </trkpt>
      <trkpt lat="46.436782507225871" lon="8.364199167117477">
        <ele>2419.9499999999998</ele>
        <time>2020-09-06T08:52:21Z</time>
      </trkpt>
      <trkpt lat="46.436620987951756" lon="8.364341575652361">
        <ele>2418.3600000000001</ele>
        <time>2020-09-06T08:52:39Z</time>
      </trkpt>
      <trkpt lat="46.436583772301674" lon="8.364332439377904">
        <ele>2418.5999999999999</ele>
        <time>2020-09-06T08:52:43Z</time>
      </trkpt>
      <trkpt lat="46.436468521133065" lon="8.364319615066052">
        <ele>2420.5900000000001</ele>
        <time>2020-09-06T08:52:57Z</time>
      </trkpt>
      <trkpt lat="46.436387719586492" lon="8.364323386922479">
        <ele>2423.6799999999998</ele>
        <time>2020-09-06T08:53:10Z</time>
      </trkpt>
      <trkpt lat="46.436330555006862" lon="8.36432003416121">
        <ele>2426.2199999999998</ele>
        <time>2020-09-06T08:53:22Z</time>
      </trkpt>
      <trkpt lat="46.436299625784159" lon="8.364305952563882">
        <ele>2427.1700000000001</ele>
        <time>2020-09-06T08:53:34Z</time>
      </trkpt>
      <trkpt lat="46.436255872249603" lon="8.364322548732162">
        <ele>2427.8400000000001</ele>
        <time>2020-09-06T08:53:46Z</time>
      </trkpt>
      <trkpt lat="46.43618093803525" lon="8.364358758553863">
        <ele>2429.52</ele>
        <time>2020-09-06T08:54:01Z</time>
      </trkpt>
      <trkpt lat="46.436112876981497" lon="8.364344425499439">
        <ele>2429.6500000000001</ele>
        <time>2020-09-06T08:54:09Z</time>
      </trkpt>
      <trkpt lat="46.436079097911716" lon="8.364336043596268">
        <ele>2429.4299999999998</ele>
        <time>2020-09-06T08:54:17Z</time>
      </trkpt>
      <trkpt lat="46.436048755422235" lon="8.364325733855367">
        <ele>2429.3899999999999</ele>
        <time>2020-09-06T08:54:20Z</time>
      </trkpt>
      <trkpt lat="46.435936018824577" lon="8.364299666136503">
        <ele>2431.4299999999998</ele>
        <time>2020-09-06T08:54:36Z</time>
      </trkpt>
      <trkpt lat="46.435879860073328" lon="8.364279130473733">
        <ele>2432.7600000000002</ele>
        <time>2020-09-06T08:54:53Z</time>
      </trkpt>
      <trkpt lat="46.435758154839277" lon="8.364195311442018">
        <ele>2434.2800000000002</ele>
        <time>2020-09-06T08:55:08Z</time>
      </trkpt>
      <trkpt lat="46.435653045773506" lon="8.364145690575242">
        <ele>2435.21</ele>
        <time>2020-09-06T08:55:21Z</time>
      </trkpt>
      <trkpt lat="46.435546511784196" lon="8.364155245944858">
        <ele>2435.7399999999998</ele>
        <time>2020-09-06T08:55:33Z</time>
      </trkpt>
      <trkpt lat="46.435470068827271" lon="8.364122975617647">
        <ele>2436.98</ele>
        <time>2020-09-06T08:55:44Z</time>
      </trkpt>
      <trkpt lat="46.435361187905073" lon="8.364044521003962">
        <ele>2438.9499999999998</ele>
        <time>2020-09-06T08:56:00Z</time>
      </trkpt>
      <trkpt lat="46.435302766039968" lon="8.364097746089101">
        <ele>2441.6300000000001</ele>
        <time>2020-09-06T08:56:13Z</time>
      </trkpt>
      <trkpt lat="46.435288684442639" lon="8.364223055541515">
        <ele>2444.1399999999999</ele>
        <time>2020-09-06T08:56:27Z</time>
      </trkpt>
      <trkpt lat="46.435260269790888" lon="8.364379713311791">
        <ele>2447.0799999999999</ele>
        <time>2020-09-06T08:56:44Z</time>
      </trkpt>
      <trkpt lat="46.435257084667683" lon="8.364473674446344">
        <ele>2448.4400000000001</ele>
        <time>2020-09-06T08:57:00Z</time>
      </trkpt>
      <trkpt lat="46.435255240648985" lon="8.36447979323566">
        <ele>2448.4200000000001</ele>
        <time>2020-09-06T08:57:16Z</time>
      </trkpt>
      <trkpt lat="46.435258761048317" lon="8.364505274221301">
        <ele>2448.6599999999999</ele>
        <time>2020-09-06T08:57:37Z</time>
      </trkpt>
      <trkpt lat="46.435221126303077" lon="8.364545842632651">
        <ele>2450.8899999999999</ele>
        <time>2020-09-06T08:57:49Z</time>
      </trkpt>
      <trkpt lat="46.435155663639307" lon="8.364464621990919">
        <ele>2452.6900000000001</ele>
        <time>2020-09-06T08:58:04Z</time>
      </trkpt>
      <trkpt lat="46.435082741081715" lon="8.364400584250689">
        <ele>2454.4400000000001</ele>
        <time>2020-09-06T08:58:18Z</time>
      </trkpt>
      <trkpt lat="46.434958353638649" lon="8.364309640601277">
        <ele>2456.4299999999998</ele>
        <time>2020-09-06T08:58:35Z</time>
      </trkpt>
      <trkpt lat="46.434815777465701" lon="8.364233616739512">
        <ele>2458.5799999999999</ele>
        <time>2020-09-06T08:58:53Z</time>
      </trkpt>
      <trkpt lat="46.434721229597926" lon="8.364204028621316">
        <ele>2460.6700000000001</ele>
        <time>2020-09-06T08:59:06Z</time>
      </trkpt>
      <trkpt lat="46.434627939015627" lon="8.364159688353539">
        <ele>2462.9400000000001</ele>
        <time>2020-09-06T08:59:21Z</time>
      </trkpt>
      <trkpt lat="46.434560548514128" lon="8.364069499075413">
        <ele>2464.3000000000002</ele>
        <time>2020-09-06T08:59:33Z</time>
      </trkpt>
      <trkpt lat="46.434468347579241" lon="8.363989787176251">
        <ele>2465.8600000000001</ele>
        <time>2020-09-06T08:59:48Z</time>
      </trkpt>
      <trkpt lat="46.434411434456706" lon="8.363960618153215">
        <ele>2468.5</ele>
        <time>2020-09-06T09:00:00Z</time>
      </trkpt>
      <trkpt lat="46.434365417808294" lon="8.363894568756223">
        <ele>2470.7399999999998</ele>
        <time>2020-09-06T09:00:12Z</time>
      </trkpt>
      <trkpt lat="46.4343236759305" lon="8.363753333687782">
        <ele>2471.6999999999998</ele>
        <time>2020-09-06T09:00:27Z</time>
      </trkpt>
      <trkpt lat="46.434269528836012" lon="8.363693654537201">
        <ele>2473.0900000000001</ele>
        <time>2020-09-06T09:00:39Z</time>
      </trkpt>
      <trkpt lat="46.434254441410303" lon="8.363655852153897">
        <ele>2473.0599999999999</ele>
        <time>2020-09-06T09:00:59Z</time>
      </trkpt>
      <trkpt lat="46.434230301529169" lon="8.363600699231029">
        <ele>2472.6900000000001</ele>
        <time>2020-09-06T09:01:08Z</time>
      </trkpt>
      <trkpt lat="46.434123935177922" lon="8.363482095301151">
        <ele>2474.71</ele>
        <time>2020-09-06T09:01:25Z</time>
      </trkpt>
      <trkpt lat="46.434043133631349" lon="8.3633569534868">
        <ele>2476.23</ele>
        <time>2020-09-06T09:01:40Z</time>
      </trkpt>
      <trkpt lat="46.434036763384938" lon="8.363328455016017">
        <ele>2476.29</ele>
        <time>2020-09-06T09:01:55Z</time>
      </trkpt>
      <trkpt lat="46.434034751728177" lon="8.363319905474782">
        <ele>2476.8899999999999</ele>
        <time>2020-09-06T09:02:17Z</time>
      </trkpt>
      <trkpt lat="46.434004325419664" lon="8.363316804170609">
        <ele>2476.8499999999999</ele>
        <time>2020-09-06T09:02:28Z</time>
      </trkpt>
      <trkpt lat="46.434006672352552" lon="8.363309847190976">
        <ele>2475.9400000000001</ele>
        <time>2020-09-06T09:02:40Z</time>
      </trkpt>
      <trkpt lat="46.434009606018662" lon="8.363295681774616">
        <ele>2476.3499999999999</ele>
        <time>2020-09-06T09:03:19Z</time>
      </trkpt>
      <trkpt lat="46.434006588533521" lon="8.363295346498489">
        <ele>2477.0700000000002</ele>
        <time>2020-09-06T09:03:39Z</time>
      </trkpt>
      <trkpt lat="46.434002229943871" lon="8.363312697038055">
        <ele>2476.6999999999998</ele>
        <time>2020-09-06T09:04:15Z</time>
      </trkpt>
      <trkpt lat="46.433994770050049" lon="8.363306578248739">
        <ele>2476.8299999999999</ele>
        <time>2020-09-06T09:05:03Z</time>
      </trkpt>
      <trkpt lat="46.434002481400967" lon="8.363310601562262">
        <ele>2477.5799999999999</ele>
        <time>2020-09-06T09:05:51Z</time>
      </trkpt>
      <trkpt lat="46.434009773656726" lon="8.363309344276786">
        <ele>2478.3400000000001</ele>
        <time>2020-09-06T09:06:02Z</time>
      </trkpt>
      <trkpt lat="46.434018323197961" lon="8.363314289599657">
        <ele>2478.3299999999999</ele>
        <time>2020-09-06T09:06:15Z</time>
      </trkpt>
      <trkpt lat="46.434005331248045" lon="8.363260813057423">
        <ele>2477.54</ele>
        <time>2020-09-06T09:06:25Z</time>
      </trkpt>
      <trkpt lat="46.433987393975258" lon="8.363249497488141">
        <ele>2477.77</ele>
        <time>2020-09-06T09:06:36Z</time>
      </trkpt>
      <trkpt lat="46.433966355398297" lon="8.363231141120195">
        <ele>2477.1900000000001</ele>
        <time>2020-09-06T09:06:48Z</time>
      </trkpt>
      <trkpt lat="46.433935258537531" lon="8.363172132521868">
        <ele>2477.04</ele>
        <time>2020-09-06T09:06:59Z</time>
      </trkpt>
      <trkpt lat="46.433936432003975" lon="8.36307305842638">
        <ele>2477.8200000000002</ele>
        <time>2020-09-06T09:07:12Z</time>
      </trkpt>
      <trkpt lat="46.433939868584275" lon="8.363069789484143">
        <ele>2478.04</ele>
        <time>2020-09-06T09:07:33Z</time>
      </trkpt>
      <trkpt lat="46.433936934918165" lon="8.363056294620037">
        <ele>2477.48</ele>
        <time>2020-09-06T09:07:37Z</time>
      </trkpt>
      <trkpt lat="46.433949759230018" lon="8.362874826416373">
        <ele>2477.48</ele>
        <time>2020-09-06T09:07:52Z</time>
      </trkpt>
      <trkpt lat="46.433955207467079" lon="8.362869964912534">
        <ele>2476.8699999999999</ele>
        <time>2020-09-06T09:08:08Z</time>
      </trkpt>
      <trkpt lat="46.433942299336195" lon="8.362859403714538">
        <ele>2477.3800000000001</ele>
        <time>2020-09-06T09:08:19Z</time>
      </trkpt>
      <trkpt lat="46.433923691511154" lon="8.362840041518211">
        <ele>2476.04</ele>
        <time>2020-09-06T09:08:32Z</time>
      </trkpt>
    </trkseg>
  </trk>

</gpx>